Wetterdaten: Freitag, 07.02.2020
Datum Zeit Temp. Aussen Temp. o. S. Temp +5cm Feuchte Auss Luftdruck Regen Sonnenschein Regendauer Solar Windben Empfang
07.02.2020 00:00 0,3 C -0,6 C -1,7 C 90 % 1031,4 hPa 0,0 l/m 0 min 0 min 0 W/m 6,4 km/h (2 Bft) 97,83 %
07.02.2020 00:02 0,3 C -0,6 C -1,7 C 90 % 1031,4 hPa 0,0 l/m 0 min 0 min 0 W/m 0,0 km/h (0 Bft) 97,62 %
07.02.2020 00:04 0,3 C 0,0 C -1,1 C 90 % 1031,4 hPa 0,0 l/m 0 min 0 min 0 W/m 0,0 km/h (0 Bft) 97,87 %
07.02.2020 00:08 0,3 C 0,0 C -1,1 C 91 % 1031,4 hPa 0,0 l/m 0 min 0 min 0 W/m 0,0 km/h (0 Bft) 97,87 %
07.02.2020 00:10 0,3 C 0,0 C -1,1 C 91 % 1031,4 hPa 0,0 l/m 0 min 0 min 0 W/m 0,0 km/h (0 Bft) 97,83 %
07.02.2020 00:12 0,3 C 0,0 C -1,1 C 91 % 1031,4 hPa 0,0 l/m 0 min 0 min 0 W/m 0,0 km/h (0 Bft) 93,62 %
07.02.2020 00:14 0,3 C 0,0 C -1,1 C 91 % 1031,3 hPa 0,0 l/m 0 min 0 min 0 W/m 0,0 km/h (0 Bft) 97,87 %
07.02.2020 00:16 0,3 C 0,0 C -1,1 C 91 % 1031,3 hPa 0,0 l/m 0 min 0 min 0 W/m 0,0 km/h (0 Bft) 97,87 %
07.02.2020 00:18 0,3 C 0,0 C -1,1 C 91 % 1031,3 hPa 0,0 l/m 0 min 0 min 0 W/m 0,0 km/h (0 Bft) 97,87 %
07.02.2020 00:20 0,3 C 0,0 C -1,1 C 91 % 1031,3 hPa 0,0 l/m 0 min 0 min 0 W/m 0,0 km/h (0 Bft) 97,87 %
07.02.2020 00:22 0,3 C 0,0 C -1,1 C 92 % 1031,3 hPa 0,0 l/m 0 min 0 min 0 W/m 0,0 km/h (0 Bft) 97,83 %
07.02.2020 00:24 0,3 C 0,0 C -1,1 C 92 % 1031,3 hPa 0,0 l/m 0 min 0 min 0 W/m 0,0 km/h (0 Bft) 95,74 %
07.02.2020 00:26 0,4 C 0,0 C -1,1 C 92 % 1031,2 hPa 0,0 l/m 0 min 0 min 0 W/m 0,0 km/h (0 Bft) 95,74 %
07.02.2020 00:28 0,4 C 0,0 C -1,1 C 92 % 1031,2 hPa 0,0 l/m 0 min 0 min 0 W/m 0,0 km/h (0 Bft) 97,87 %
07.02.2020 00:30 0,4 C -0,6 C -1,7 C 92 % 1031,2 hPa 0,0 l/m 0 min 0 min 0 W/m 0,0 km/h (0 Bft) 100,00 %
07.02.2020 00:32 0,4 C 0,0 C -1,7 C 92 % 1031,2 hPa 0,0 l/m 0 min 0 min 0 W/m 0,0 km/h (0 Bft) 100,00 %
07.02.2020 00:34 0,4 C 0,0 C -1,1 C 92 % 1031,2 hPa 0,0 l/m 0 min 0 min 0 W/m 0,0 km/h (0 Bft) 97,83 %
07.02.2020 00:36 0,4 C 0,6 C -1,1 C 92 % 1031,1 hPa 0,0 l/m 0 min 0 min 0 W/m 0,0 km/h (0 Bft) 95,74 %
07.02.2020 00:38 0,5 C 0,6 C -1,1 C 92 % 1031,1 hPa 0,0 l/m 0 min 0 min 0 W/m 0,0 km/h (0 Bft) 93,62 %
07.02.2020 00:40 0,5 C 0,6 C -1,1 C 93 % 1031,1 hPa 0,0 l/m 0 min 0 min 0 W/m 0,0 km/h (0 Bft) 95,74 %
07.02.2020 00:42 0,6 C 0,6 C -0,6 C 93 % 1031,1 hPa 0,0 l/m 0 min 0 min 0 W/m 0,0 km/h (0 Bft) 95,74 %
07.02.2020 00:44 0,6 C 0,6 C -0,6 C 93 % 1031,1 hPa 0,0 l/m 0 min 0 min 0 W/m 0,0 km/h (0 Bft) 95,74 %
07.02.2020 00:46 0,6 C 0,6 C -0,6 C 93 % 1031,1 hPa 0,0 l/m 0 min 0 min 0 W/m 0,0 km/h (0 Bft) 95,65 %
07.02.2020 00:48 0,6 C 0,6 C -0,6 C 93 % 1031,1 hPa 0,0 l/m 0 min 0 min 0 W/m 0,0 km/h (0 Bft) 93,62 %
07.02.2020 00:50 0,6 C 0,6 C -0,6 C 93 % 1031,1 hPa 0,0 l/m 0 min 0 min 0 W/m 3,2 km/h (1 Bft) 95,74 %
07.02.2020 00:52 0,7 C 0,6 C -0,6 C 93 % 1031,1 hPa 0,0 l/m 0 min 0 min 0 W/m 6,4 km/h (2 Bft) 95,74 %
07.02.2020 00:54 0,7 C 0,6 C -0,6 C 93 % 1031,1 hPa 0,0 l/m 0 min 0 min 0 W/m 6,4 km/h (2 Bft) 93,62 %
07.02.2020 00:56 0,8 C 0,6 C -0,6 C 94 % 1031,1 hPa 0,0 l/m 0 min 0 min 0 W/m 0,0 km/h (0 Bft) 95,65 %
07.02.2020 00:58 0,8 C 0,6 C -0,6 C 94 % 1031,1 hPa 0,0 l/m 0 min 0 min 0 W/m 0,0 km/h (0 Bft) 95,74 %
07.02.2020 01:00 0,8 C 0,6 C -0,6 C 94 % 1031,2 hPa 0,0 l/m 0 min 0 min 0 W/m 0,0 km/h (0 Bft) 95,74 %
07.02.2020 01:02 0,9 C 0,6 C -0,6 C 94 % 1031,1 hPa 0,0 l/m 0 min 0 min 0 W/m 0,0 km/h (0 Bft) 91,49 %
07.02.2020 01:04 0,9 C 0,6 C -0,6 C 94 % 1031,1 hPa 0,0 l/m 0 min 0 min 0 W/m 6,4 km/h (2 Bft) 95,74 %
07.02.2020 01:06 0,9 C 0,6 C -0,6 C 94 % 1031,1 hPa 0,0 l/m 0 min 0 min 0 W/m 3,2 km/h (1 Bft) 95,74 %
07.02.2020 01:08 0,9 C 0,6 C -0,6 C 94 % 1031,1 hPa 0,0 l/m 0 min 0 min 0 W/m 9,7 km/h (2 Bft) 97,83 %
07.02.2020 01:10 1,0 C 0,6 C -0,6 C 94 % 1031,1 hPa 0,0 l/m 0 min 0 min 0 W/m 3,2 km/h (1 Bft) 95,74 %
07.02.2020 01:12 1,0 C 0,6 C -0,6 C 94 % 1031,1 hPa 0,0 l/m 0 min 0 min 0 W/m 3,2 km/h (1 Bft) 93,62 %
07.02.2020 01:14 1,0 C 0,6 C -0,6 C 94 % 1031,1 hPa 0,0 l/m 0 min 0 min 0 W/m 0,0 km/h (0 Bft) 95,74 %
07.02.2020 01:16 1,0 C 0,6 C -0,6 C 94 % 1031,0 hPa 0,0 l/m 0 min 0 min 0 W/m 0,0 km/h (0 Bft) 95,74 %
07.02.2020 01:18 1,1 C 0,6 C -0,6 C 94 % 1031,1 hPa 0,0 l/m 0 min 0 min 0 W/m 6,4 km/h (2 Bft) 95,74 %
07.02.2020 01:20 1,1 C 0,6 C -0,6 C 94 % 1031,0 hPa 0,0 l/m 0 min 0 min 0 W/m 0,0 km/h (0 Bft) 95,65 %
07.02.2020 01:22 1,1 C 0,6 C -0,6 C 94 % 1031,0 hPa 0,0 l/m 0 min 0 min 0 W/m 0,0 km/h (0 Bft) 97,87 %
07.02.2020 01:24 1,1 C 0,6 C -0,6 C 94 % 1031,0 hPa 0,0 l/m 0 min 0 min 0 W/m 3,2 km/h (1 Bft) 97,87 %
07.02.2020 01:26 1,1 C 0,6 C -0,6 C 94 % 1031,0 hPa 0,0 l/m 0 min 0 min 0 W/m 3,2 km/h (1 Bft) 97,87 %
07.02.2020 01:28 1,1 C 0,6 C -0,6 C 94 % 1031,0 hPa 0,0 l/m 0 min 0 min 0 W/m 3,2 km/h (1 Bft) 97,87 %
07.02.2020 01:30 1,1 C 0,6 C -0,6 C 95 % 1030,9 hPa 0,0 l/m 0 min 0 min 0 W/m 3,2 km/h (1 Bft) 97,87 %
07.02.2020 01:32 1,1 C 0,6 C -0,6 C 95 % 1031,0 hPa 0,0 l/m 0 min 0 min 0 W/m 6,4 km/h (2 Bft) 100,00 %
07.02.2020 01:34 1,1 C 0,6 C -0,6 C 95 % 1031,0 hPa 0,0 l/m 0 min 0 min 0 W/m 0,0 km/h (0 Bft) 100,00 %
07.02.2020 01:36 1,1 C 0,6 C -0,6 C 95 % 1030,9 hPa 0,0 l/m 0 min 0 min 0 W/m 3,2 km/h (1 Bft) 100,00 %
07.02.2020 01:38 1,0 C 0,6 C -0,6 C 95 % 1031,0 hPa 0,0 l/m 0 min 0 min 0 W/m 0,0 km/h (0 Bft) 100,00 %
07.02.2020 01:40 1,0 C 0,6 C -0,6 C 95 % 1030,9 hPa 0,0 l/m 0 min 0 min 0 W/m 0,0 km/h (0 Bft) 100,00 %
07.02.2020 01:42 1,0 C 0,6 C -0,6 C 95 % 1031,0 hPa 0,0 l/m 0 min 0 min 0 W/m 3,2 km/h (1 Bft) 97,87 %
07.02.2020 01:44 1,0 C 0,6 C -0,6 C 95 % 1030,9 hPa 0,0 l/m 0 min 0 min 0 W/m 6,4 km/h (2 Bft) 100,00 %
07.02.2020 01:46 1,0 C 0,6 C -0,6 C 95 % 1030,9 hPa 0,0 l/m 0 min 0 min 0 W/m 9,7 km/h (2 Bft) 97,87 %
07.02.2020 01:48 1,0 C 0,6 C -0,6 C 95 % 1030,9 hPa 0,0 l/m 0 min 0 min 0 W/m 6,4 km/h (2 Bft) 100,00 %
07.02.2020 01:50 1,0 C 0,6 C -0,6 C 95 % 1030,9 hPa 0,0 l/m 0 min 0 min 0 W/m 6,4 km/h (2 Bft) 100,00 %
07.02.2020 01:52 1,0 C 0,6 C -0,6 C 95 % 1030,9 hPa 0,0 l/m 0 min 0 min 0 W/m 0,0 km/h (0 Bft) 100,00 %
07.02.2020 01:54 1,0 C 0,6 C -0,6 C 95 % 1030,9 hPa 0,0 l/m 0 min 0 min 0 W/m 9,7 km/h (2 Bft) 100,00 %
07.02.2020 01:56 1,0 C 0,6 C -0,6 C 95 % 1030,8 hPa 0,0 l/m 0 min 0 min 0 W/m 6,4 km/h (2 Bft) 100,00 %
07.02.2020 01:58 1,0 C 0,6 C -0,6 C 95 % 1030,8 hPa 0,0 l/m 0 min 0 min 0 W/m 6,4 km/h (2 Bft) 97,87 %
07.02.2020 02:00 1,0 C 0,6 C -0,6 C 95 % 1030,8 hPa 0,0 l/m 0 min 0 min 0 W/m 9,7 km/h (2 Bft) 97,87 %
07.02.2020 02:02 1,0 C 0,6 C 0,0 C 95 % 1030,8 hPa 0,0 l/m 0 min 0 min 0 W/m 3,2 km/h (1 Bft) 97,87 %
07.02.2020 02:04 1,0 C 0,6 C 0,0 C 95 % 1030,9 hPa 0,0 l/m 0 min 0 min 0 W/m 6,4 km/h (2 Bft) 100,00 %
07.02.2020 02:06 1,0 C 0,6 C -0,6 C 95 % 1030,8 hPa 0,0 l/m 0 min 0 min 0 W/m 3,2 km/h (1 Bft) 100,00 %
07.02.2020 02:08 1,0 C 0,6 C -0,6 C 95 % 1030,8 hPa 0,0 l/m 0 min 0 min 0 W/m 6,4 km/h (2 Bft) 100,00 %
07.02.2020 02:10 1,0 C 0,6 C -0,6 C 95 % 1030,8 hPa 0,0 l/m 0 min 0 min 0 W/m 3,2 km/h (1 Bft) 97,87 %
07.02.2020 02:12 1,0 C 0,6 C -0,6 C 95 % 1030,7 hPa 0,0 l/m 0 min 0 min 0 W/m 3,2 km/h (1 Bft) 97,87 %
07.02.2020 02:14 1,0 C 0,6 C -0,6 C 95 % 1030,8 hPa 0,0 l/m 0 min 0 min 0 W/m 6,4 km/h (2 Bft) 95,74 %
07.02.2020 02:16 1,0 C 0,6 C -0,6 C 95 % 1030,7 hPa 0,0 l/m 0 min 0 min 0 W/m 6,4 km/h (2 Bft) 95,74 %
07.02.2020 02:18 1,0 C 0,6 C 0,0 C 95 % 1030,7 hPa 0,0 l/m 0 min 0 min 0 W/m 9,7 km/h (2 Bft) 97,83 %
07.02.2020 02:20 1,0 C 0,6 C 0,0 C 95 % 1030,7 hPa 0,0 l/m 0 min 0 min 0 W/m 9,7 km/h (2 Bft) 97,87 %
07.02.2020 02:22 0,9 C 0,6 C 0,0 C 95 % 1030,7 hPa 0,0 l/m 0 min 0 min 0 W/m 12,9 km/h (3 Bft) 97,87 %
07.02.2020 02:24 0,9 C 0,6 C 0,0 C 95 % 1030,6 hPa 0,0 l/m 0 min 0 min 0 W/m 6,4 km/h (2 Bft) 97,87 %
07.02.2020 02:26 1,0 C 0,6 C 0,0 C 95 % 1030,7 hPa 0,0 l/m 0 min 0 min 0 W/m 6,4 km/h (2 Bft) 95,74 %
07.02.2020 02:28 1,0 C 0,6 C -0,6 C 95 % 1030,6 hPa 0,0 l/m 0 min 0 min 0 W/m 6,4 km/h (2 Bft) 97,87 %
07.02.2020 02:30 0,9 C 0,6 C -0,6 C 95 % 1030,6 hPa 0,0 l/m 0 min 0 min 0 W/m 6,4 km/h (2 Bft) 97,83 %
07.02.2020 02:32 0,9 C 0,6 C -0,6 C 95 % 1030,6 hPa 0,0 l/m 0 min 0 min 0 W/m 12,9 km/h (3 Bft) 97,87 %
07.02.2020 02:34 0,9 C 0,6 C 0,0 C 95 % 1030,6 hPa 0,0 l/m 0 min 0 min 0 W/m 16,1 km/h (3 Bft) 97,87 %
07.02.2020 02:36 0,9 C 0,6 C 0,0 C 95 % 1030,6 hPa 0,0 l/m 0 min 0 min 0 W/m 6,4 km/h (2 Bft) 97,87 %
07.02.2020 02:38 0,9 C 0,6 C 0,0 C 95 % 1030,6 hPa 0,0 l/m 0 min 0 min 0 W/m 12,9 km/h (3 Bft) 97,87 %
07.02.2020 02:40 0,9 C 0,6 C 0,0 C 95 % 1030,7 hPa 0,0 l/m 0 min 0 min 0 W/m 12,9 km/h (3 Bft) 97,87 %
07.02.2020 02:42 0,9 C 0,6 C 0,0 C 95 % 1030,6 hPa 0,0 l/m 0 min 0 min 0 W/m 6,4 km/h (2 Bft) 97,83 %
07.02.2020 02:44 0,9 C 0,6 C -0,6 C 95 % 1030,6 hPa 0,0 l/m 0 min 0 min 0 W/m 12,9 km/h (3 Bft) 97,87 %
07.02.2020 02:46 0,9 C 0,6 C 0,0 C 95 % 1030,6 hPa 0,0 l/m 0 min 0 min 0 W/m 16,1 km/h (3 Bft) 97,87 %
07.02.2020 02:48 0,9 C 0,6 C 0,0 C 95 % 1030,5 hPa 0,0 l/m 0 min 0 min 0 W/m 12,9 km/h (3 Bft) 97,87 %
07.02.2020 02:50 0,9 C 0,6 C 0,0 C 95 % 1030,5 hPa 0,0 l/m 0 min 0 min 0 W/m 16,1 km/h (3 Bft) 97,87 %
07.02.2020 02:52 0,9 C 0,6 C 0,0 C 95 % 1030,5 hPa 0,0 l/m 0 min 0 min 0 W/m 12,9 km/h (3 Bft) 97,83 %
07.02.2020 02:54 0,9 C 0,0 C -0,6 C 95 % 1030,5 hPa 0,0 l/m 0 min 0 min 0 W/m 6,4 km/h (2 Bft) 54,55 %
07.02.2020 02:56 0,9 C 0,0 C -0,6 C 95 % 1030,5 hPa 0,0 l/m 0 min 0 min 0 W/m 6,4 km/h (2 Bft) 97,87 %
07.02.2020 02:58 0,9 C 0,6 C -0,6 C 95 % 1030,5 hPa 0,0 l/m 0 min 0 min 0 W/m 6,4 km/h (2 Bft) 100,00 %
07.02.2020 03:00 0,9 C 0,0 C -0,6 C 95 % 1030,5 hPa 0,0 l/m 0 min 0 min 0 W/m 3,2 km/h (1 Bft) 100,00 %
07.02.2020 03:02 0,9 C 0,0 C -0,6 C 95 % 1030,5 hPa 0,0 l/m 0 min 0 min 0 W/m 6,4 km/h (2 Bft) 97,87 %
07.02.2020 03:04 0,9 C 0,0 C -0,6 C 95 % 1030,5 hPa 0,0 l/m 0 min 0 min 0 W/m 6,4 km/h (2 Bft) 100,00 %
07.02.2020 03:06 0,8 C 0,0 C -0,6 C 95 % 1030,5 hPa 0,0 l/m 0 min 0 min 0 W/m 12,9 km/h (3 Bft) 100,00 %
07.02.2020 03:08 0,8 C 0,0 C -0,6 C 95 % 1030,5 hPa 0,0 l/m 0 min 0 min 0 W/m 12,9 km/h (3 Bft) 100,00 %
07.02.2020 03:10 0,8 C 0,0 C -0,6 C 95 % 1030,6 hPa 0,0 l/m 0 min 0 min 0 W/m 12,9 km/h (3 Bft) 100,00 %
07.02.2020 03:12 0,8 C 0,0 C -0,6 C 95 % 1030,5 hPa 0,0 l/m 0 min 0 min 0 W/m 6,4 km/h (2 Bft) 95,74 %
07.02.2020 03:14 0,8 C 0,6 C -0,6 C 95 % 1030,5 hPa 0,0 l/m 0 min 0 min 0 W/m 12,9 km/h (3 Bft) 100,00 %
07.02.2020 03:16 0,8 C 0,6 C 0,0 C 95 % 1030,5 hPa 0,0 l/m 0 min 0 min 0 W/m 12,9 km/h (3 Bft) 95,65 %
07.02.2020 03:21 0,8 C 0,0 C -0,6 C 95 % 1030,4 hPa 0,0 l/m 0 min 0 min 0 W/m 12,9 km/h (3 Bft) 96,43 %
07.02.2020 03:22 0,8 C 0,0 C -0,6 C 95 % 1030,4 hPa 0,0 l/m 0 min 0 min 0 W/m 3,2 km/h (1 Bft) 100,00 %
07.02.2020 03:24 0,8 C 0,0 C -0,6 C 95 % 1030,4 hPa 0,0 l/m 0 min 0 min 0 W/m 0,0 km/h (0 Bft) 97,87 %
07.02.2020 03:26 0,8 C 0,0 C -0,6 C 95 % 1030,4 hPa 0,0 l/m 0 min 0 min 0 W/m 3,2 km/h (1 Bft) 95,74 %
07.02.2020 03:28 0,8 C 0,0 C -0,6 C 95 % 1030,4 hPa 0,0 l/m 0 min 0 min 0 W/m 6,4 km/h (2 Bft) 97,83 %
07.02.2020 03:30 0,8 C 0,0 C -0,6 C 95 % 1030,4 hPa 0,0 l/m 0 min 0 min 0 W/m 6,4 km/h (2 Bft) 95,74 %
07.02.2020 03:32 0,8 C 0,0 C -0,6 C 95 % 1030,4 hPa 0,0 l/m 0 min 0 min 0 W/m 3,2 km/h (1 Bft) 97,87 %
07.02.2020 03:34 0,8 C 0,0 C -0,6 C 95 % 1030,4 hPa 0,0 l/m 0 min 0 min 0 W/m 12,9 km/h (3 Bft) 95,74 %
07.02.2020 03:36 0,8 C 0,0 C -0,6 C 95 % 1030,4 hPa 0,0 l/m 0 min 0 min 0 W/m 12,9 km/h (3 Bft) 95,74 %
07.02.2020 03:38 0,8 C 0,0 C -0,6 C 95 % 1030,3 hPa 0,0 l/m 0 min 0 min 0 W/m 6,4 km/h (2 Bft) 95,74 %
07.02.2020 03:40 0,8 C 0,0 C -0,6 C 95 % 1030,3 hPa 0,0 l/m 0 min 0 min 0 W/m 12,9 km/h (3 Bft) 97,83 %
07.02.2020 03:42 0,8 C 0,6 C -0,6 C 95 % 1030,3 hPa 0,0 l/m 0 min 0 min 0 W/m 12,9 km/h (3 Bft) 97,87 %
07.02.2020 03:44 0,8 C 0,6 C -0,6 C 95 % 1030,2 hPa 0,0 l/m 0 min 0 min 0 W/m 12,9 km/h (3 Bft) 97,87 %
07.02.2020 03:46 0,8 C 0,6 C -0,6 C 95 % 1030,2 hPa 0,0 l/m 0 min 0 min 0 W/m 16,1 km/h (3 Bft) 95,74 %
07.02.2020 03:48 0,8 C 0,0 C -0,6 C 95 % 1030,2 hPa 0,0 l/m 0 min 0 min 0 W/m 16,1 km/h (3 Bft) 95,74 %
07.02.2020 03:50 0,8 C 0,0 C -0,6 C 95 % 1030,1 hPa 0,0 l/m 0 min 0 min 0 W/m 3,2 km/h (1 Bft) 97,87 %
07.02.2020 03:52 0,8 C 0,0 C -0,6 C 95 % 1030,1 hPa 0,0 l/m 0 min 0 min 0 W/m 12,9 km/h (3 Bft) 97,83 %
07.02.2020 03:54 0,8 C 0,0 C -0,6 C 95 % 1030,1 hPa 0,0 l/m 0 min 0 min 0 W/m 12,9 km/h (3 Bft) 97,87 %
07.02.2020 03:56 0,8 C 0,0 C -0,6 C 95 % 1030,1 hPa 0,0 l/m 0 min 0 min 0 W/m 12,9 km/h (3 Bft) 97,87 %
07.02.2020 03:58 0,8 C 0,0 C -0,6 C 95 % 1030,1 hPa 0,0 l/m 0 min 0 min 0 W/m 12,9 km/h (3 Bft) 97,87 %
07.02.2020 04:00 0,8 C 0,0 C -0,6 C 95 % 1030,0 hPa 0,0 l/m 0 min 0 min 0 W/m 12,9 km/h (3 Bft) 97,87 %
07.02.2020 04:02 0,8 C 0,0 C -0,6 C 95 % 1030,0 hPa 0,0 l/m 0 min 0 min 0 W/m 6,4 km/h (2 Bft) 100,00 %
07.02.2020 04:04 0,8 C 0,0 C -0,6 C 95 % 1030,0 hPa 0,0 l/m 0 min 0 min 0 W/m 12,9 km/h (3 Bft) 100,00 %
07.02.2020 04:06 0,7 C 0,0 C -0,6 C 95 % 1029,9 hPa 0,0 l/m 0 min 0 min 0 W/m 12,9 km/h (3 Bft) 97,87 %
07.02.2020 04:08 0,7 C 0,0 C -0,6 C 95 % 1030,0 hPa 0,0 l/m 0 min 0 min 0 W/m 6,4 km/h (2 Bft) 97,87 %
07.02.2020 04:10 0,7 C 0,0 C -0,6 C 95 % 1030,0 hPa 0,0 l/m 0 min 0 min 0 W/m 6,4 km/h (2 Bft) 97,87 %
07.02.2020 04:12 0,7 C 0,0 C -0,6 C 95 % 1030,0 hPa 0,0 l/m 0 min 0 min 0 W/m 6,4 km/h (2 Bft) 97,87 %
07.02.2020 04:14 0,7 C 0,0 C -0,6 C 95 % 1030,0 hPa 0,0 l/m 0 min 0 min 0 W/m 12,9 km/h (3 Bft) 97,83 %
07.02.2020 04:16 0,7 C 0,0 C -0,6 C 95 % 1029,9 hPa 0,0 l/m 0 min 0 min 0 W/m 16,1 km/h (3 Bft) 97,87 %
07.02.2020 04:18 0,7 C 0,0 C -0,6 C 95 % 1029,9 hPa 0,0 l/m 0 min 0 min 0 W/m 6,4 km/h (2 Bft) 95,74 %
07.02.2020 04:20 0,7 C 0,0 C -0,6 C 95 % 1029,9 hPa 0,0 l/m 0 min 0 min 0 W/m 6,4 km/h (2 Bft) 97,87 %
07.02.2020 04:22 0,6 C 0,0 C -0,6 C 95 % 1029,8 hPa 0,0 l/m 0 min 0 min 0 W/m 6,4 km/h (2 Bft) 97,87 %
07.02.2020 04:24 0,6 C 0,0 C -0,6 C 95 % 1029,8 hPa 0,0 l/m 0 min 0 min 0 W/m 3,2 km/h (1 Bft) 97,87 %
07.02.2020 04:26 0,6 C 0,0 C -0,6 C 95 % 1029,9 hPa 0,0 l/m 0 min 0 min 0 W/m 12,9 km/h (3 Bft) 97,83 %
07.02.2020 04:28 0,6 C 0,0 C -0,6 C 95 % 1029,8 hPa 0,0 l/m 0 min 0 min 0 W/m 12,9 km/h (3 Bft) 95,74 %
07.02.2020 04:30 0,6 C 0,0 C -0,6 C 95 % 1029,8 hPa 0,0 l/m 0 min 0 min 0 W/m 6,4 km/h (2 Bft) 97,87 %
07.02.2020 04:32 0,6 C 0,0 C -0,6 C 95 % 1029,8 hPa 0,0 l/m 0 min 0 min 0 W/m 6,4 km/h (2 Bft) 97,87 %
07.02.2020 04:34 0,6 C 0,0 C -0,6 C 95 % 1029,8 hPa 0,0 l/m 0 min 0 min 0 W/m 12,9 km/h (3 Bft) 97,87 %
07.02.2020 04:36 0,6 C 0,0 C -0,6 C 95 % 1029,9 hPa 0,0 l/m 0 min 0 min 0 W/m 6,4 km/h (2 Bft) 97,87 %
07.02.2020 04:38 0,6 C 0,0 C -0,6 C 95 % 1029,9 hPa 0,0 l/m 0 min 0 min 0 W/m 12,9 km/h (3 Bft) 95,65 %
07.02.2020 04:40 0,6 C 0,0 C -0,6 C 95 % 1029,8 hPa 0,0 l/m 0 min 0 min 0 W/m 3,2 km/h (1 Bft) 97,87 %
07.02.2020 04:42 0,6 C 0,0 C -0,6 C 95 % 1029,9 hPa 0,0 l/m 0 min 0 min 0 W/m 6,4 km/h (2 Bft) 91,49 %
07.02.2020 04:44 0,6 C 0,0 C -0,6 C 95 % 1029,8 hPa 0,0 l/m 0 min 0 min 0 W/m 3,2 km/h (1 Bft) 95,74 %
07.02.2020 04:46 0,6 C 0,0 C -0,6 C 95 % 1029,8 hPa 0,0 l/m 0 min 0 min 0 W/m 3,2 km/h (1 Bft) 95,74 %
07.02.2020 04:48 0,6 C 0,0 C -0,6 C 95 % 1029,9 hPa 0,0 l/m 0 min 0 min 0 W/m 6,4 km/h (2 Bft) 93,62 %
07.02.2020 04:50 0,6 C 0,0 C -1,1 C 95 % 1029,9 hPa 0,0 l/m 0 min 0 min 0 W/m 0,0 km/h (0 Bft) 95,65 %
07.02.2020 04:52 0,6 C 0,0 C -0,6 C 95 % 1029,8 hPa 0,0 l/m 0 min 0 min 0 W/m 6,4 km/h (2 Bft) 95,74 %
07.02.2020 04:54 0,6 C 0,0 C -0,6 C 95 % 1029,8 hPa 0,0 l/m 0 min 0 min 0 W/m 6,4 km/h (2 Bft) 95,74 %
07.02.2020 04:56 0,6 C 0,0 C -0,6 C 95 % 1029,8 hPa 0,0 l/m 0 min 0 min 0 W/m 0,0 km/h (0 Bft) 95,74 %
07.02.2020 04:58 0,6 C 0,0 C -0,6 C 95 % 1029,8 hPa 0,0 l/m 0 min 0 min 0 W/m 0,0 km/h (0 Bft) 95,74 %
07.02.2020 05:00 0,6 C 0,0 C -0,6 C 95 % 1029,8 hPa 0,0 l/m 0 min 0 min 0 W/m 0,0 km/h (0 Bft) 95,74 %
07.02.2020 05:02 0,6 C 0,0 C -1,1 C 95 % 1029,8 hPa 0,0 l/m 0 min 0 min 0 W/m 0,0 km/h (0 Bft) 95,65 %
07.02.2020 05:04 0,6 C -0,6 C -1,1 C 95 % 1029,8 hPa 0,0 l/m 0 min 0 min 0 W/m 0,0 km/h (0 Bft) 95,74 %
07.02.2020 05:06 0,6 C -0,6 C -1,1 C 95 % 1029,8 hPa 0,0 l/m 0 min 0 min 0 W/m 0,0 km/h (0 Bft) 95,74 %
07.02.2020 05:08 0,6 C -0,6 C -1,1 C 95 % 1029,8 hPa 0,0 l/m 0 min 0 min 0 W/m 0,0 km/h (0 Bft) 95,74 %
07.02.2020 05:10 0,6 C -0,6 C -1,1 C 95 % 1029,8 hPa 0,0 l/m 0 min 0 min 0 W/m 0,0 km/h (0 Bft) 95,74 %
07.02.2020 05:12 0,6 C -0,6 C -1,1 C 95 % 1029,8 hPa 0,0 l/m 0 min 0 min 0 W/m 0,0 km/h (0 Bft) 95,65 %
07.02.2020 05:14 0,6 C -0,6 C -1,1 C 95 % 1029,7 hPa 0,0 l/m 0 min 0 min 0 W/m 0,0 km/h (0 Bft) 93,62 %
07.02.2020 05:16 0,6 C -0,6 C -1,1 C 95 % 1029,7 hPa 0,0 l/m 0 min 0 min 0 W/m 0,0 km/h (0 Bft) 95,74 %
07.02.2020 05:18 0,6 C -0,6 C -1,1 C 95 % 1029,7 hPa 0,0 l/m 0 min 0 min 0 W/m 0,0 km/h (0 Bft) 97,87 %
07.02.2020 05:20 0,5 C -0,6 C -1,1 C 95 % 1029,8 hPa 0,0 l/m 0 min 0 min 0 W/m 0,0 km/h (0 Bft) 97,87 %
07.02.2020 05:22 0,5 C -0,6 C -1,1 C 95 % 1029,7 hPa 0,0 l/m 0 min 0 min 0 W/m 0,0 km/h (0 Bft) 100,00 %
07.02.2020 05:24 0,5 C -0,6 C -1,1 C 95 % 1029,6 hPa 0,0 l/m 0 min 0 min 0 W/m 0,0 km/h (0 Bft) 100,00 %
07.02.2020 05:26 0,4 C -0,6 C -1,1 C 95 % 1029,6 hPa 0,0 l/m 0 min 0 min 0 W/m 0,0 km/h (0 Bft) 100,00 %
07.02.2020 05:28 0,4 C -0,6 C -1,1 C 95 % 1029,6 hPa 0,0 l/m 0 min 0 min 0 W/m 0,0 km/h (0 Bft) 100,00 %
07.02.2020 05:30 0,4 C -0,6 C -1,1 C 95 % 1029,6 hPa 0,0 l/m 0 min 0 min 0 W/m 0,0 km/h (0 Bft) 100,00 %
07.02.2020 05:32 0,4 C -0,6 C -1,1 C 95 % 1029,6 hPa 0,0 l/m 0 min 0 min 0 W/m 0,0 km/h (0 Bft) 100,00 %
07.02.2020 05:34 0,4 C -0,6 C -1,1 C 95 % 1029,6 hPa 0,0 l/m 0 min 0 min 0 W/m 0,0 km/h (0 Bft) 100,00 %
07.02.2020 05:36 0,4 C -0,6 C -1,1 C 95 % 1029,6 hPa 0,0 l/m 0 min 0 min 0 W/m 0,0 km/h (0 Bft) 100,00 %
07.02.2020 05:38 0,4 C -0,6 C -1,1 C 95 % 1029,6 hPa 0,0 l/m 0 min 0 min 0 W/m 0,0 km/h (0 Bft) 100,00 %
07.02.2020 05:40 0,4 C -0,6 C -1,1 C 95 % 1029,6 hPa 0,0 l/m 0 min 0 min 0 W/m 0,0 km/h (0 Bft) 100,00 %
07.02.2020 05:42 0,4 C -0,6 C -1,1 C 95 % 1029,5 hPa 0,0 l/m 0 min 0 min 0 W/m 0,0 km/h (0 Bft) 100,00 %
07.02.2020 05:44 0,4 C -0,6 C -1,1 C 95 % 1029,6 hPa 0,0 l/m 0 min 0 min 0 W/m 0,0 km/h (0 Bft) 100,00 %
07.02.2020 05:46 0,4 C -0,6 C -1,1 C 95 % 1029,6 hPa 0,0 l/m 0 min 0 min 0 W/m 0,0 km/h (0 Bft) 100,00 %
07.02.2020 05:48 0,4 C -0,6 C -1,7 C 95 % 1029,6 hPa 0,0 l/m 0 min 0 min 0 W/m 0,0 km/h (0 Bft) 100,00 %
07.02.2020 05:50 0,4 C -0,6 C -1,7 C 95 % 1029,6 hPa 0,0 l/m 0 min 0 min 0 W/m 0,0 km/h (0 Bft) 100,00 %
07.02.2020 05:52 0,4 C -1,1 C -1,7 C 95 % 1029,5 hPa 0,0 l/m 0 min 0 min 0 W/m 0,0 km/h (0 Bft) 100,00 %
07.02.2020 05:54 0,4 C -1,1 C -1,7 C 95 % 1029,5 hPa 0,0 l/m 0 min 0 min 0 W/m 0,0 km/h (0 Bft) 100,00 %
07.02.2020 05:56 0,3 C -1,1 C -1,7 C 95 % 1029,5 hPa 0,0 l/m 0 min 0 min 0 W/m 0,0 km/h (0 Bft) 100,00 %
07.02.2020 05:58 0,3 C -1,7 C -2,2 C 95 % 1029,5 hPa 0,0 l/m 0 min 0 min 0 W/m 0,0 km/h (0 Bft) 97,83 %
07.02.2020 06:00 0,3 C -1,1 C -2,2 C 95 % 1029,4 hPa 0,0 l/m 0 min 0 min 0 W/m 0,0 km/h (0 Bft) 100,00 %
07.02.2020 06:02 0,3 C -1,7 C -2,2 C 95 % 1029,5 hPa 0,0 l/m 0 min 0 min 0 W/m 0,0 km/h (0 Bft) 97,14 %
07.02.2020 06:04 0,2 C -1,1 C -2,2 C 95 % 1029,4 hPa 0,0 l/m 0 min 0 min 0 W/m 0,0 km/h (0 Bft) 98,15 %
07.02.2020 06:06 0,2 C -1,1 C -2,2 C 95 % 1029,4 hPa 0,0 l/m 0 min 0 min 0 W/m 0,0 km/h (0 Bft) 97,87 %
07.02.2020 06:08 0,1 C -1,1 C -2,2 C 95 % 1029,4 hPa 0,0 l/m 0 min 0 min 0 W/m 0,0 km/h (0 Bft) 95,74 %
07.02.2020 06:10 0,1 C -1,1 C -2,2 C 95 % 1029,3 hPa 0,0 l/m 0 min 0 min 0 W/m 0,0 km/h (0 Bft) 97,87 %
07.02.2020 06:12 0,1 C -1,1 C -2,2 C 95 % 1029,3 hPa 0,0 l/m 0 min 0 min 0 W/m 0,0 km/h (0 Bft) 97,83 %
07.02.2020 06:14 0,1 C -1,1 C -2,2 C 95 % 1029,3 hPa 0,0 l/m 0 min 0 min 0 W/m 0,0 km/h (0 Bft) 97,87 %
07.02.2020 06:16 0,1 C -0,6 C -1,7 C 95 % 1029,3 hPa 0,0 l/m 0 min 0 min 0 W/m 0,0 km/h (0 Bft) 98,00 %
07.02.2020 06:18 0,1 C -0,6 C -1,7 C 95 % 1029,3 hPa 0,0 l/m 0 min 0 min 0 W/m 0,0 km/h (0 Bft) 97,96 %
07.02.2020 06:20 0,1 C -0,6 C -1,7 C 95 % 1029,3 hPa 0,0 l/m 0 min 0 min 0 W/m 3,2 km/h (1 Bft) 97,14 %
07.02.2020 06:22 0,1 C -0,6 C -1,7 C 95 % 1029,3 hPa 0,0 l/m 0 min 0 min 0 W/m 0,0 km/h (0 Bft) 98,15 %
07.02.2020 06:24 0,1 C -0,6 C -1,7 C 95 % 1029,3 hPa 0,0 l/m 0 min 0 min 0 W/m 0,0 km/h (0 Bft) 97,83 %
07.02.2020 06:26 0,2 C -0,6 C -1,7 C 95 % 1029,3 hPa 0,0 l/m 0 min 0 min 0 W/m 0,0 km/h (0 Bft) 95,74 %
07.02.2020 06:28 0,2 C -0,6 C -1,1 C 95 % 1029,2 hPa 0,0 l/m 0 min 0 min 0 W/m 0,0 km/h (0 Bft) 97,87 %
07.02.2020 06:30 0,2 C 0,0 C -1,1 C 95 % 1029,2 hPa 0,0 l/m 0 min 0 min 0 W/m 0,0 km/h (0 Bft) 97,87 %
07.02.2020 06:32 0,3 C -0,6 C -1,1 C 95 % 1029,3 hPa 0,0 l/m 0 min 0 min 0 W/m 0,0 km/h (0 Bft) 95,74 %
07.02.2020 06:34 0,3 C 0,0 C -1,1 C 95 % 1029,2 hPa 0,0 l/m 0 min 0 min 0 W/m 0,0 km/h (0 Bft) 97,87 %
07.02.2020 06:36 0,3 C 0,0 C -1,1 C 96 % 1029,2 hPa 0,0 l/m 0 min 0 min 0 W/m 0,0 km/h (0 Bft) 97,83 %
07.02.2020 06:38 0,3 C 0,0 C -1,1 C 96 % 1029,3 hPa 0,0 l/m 0 min 0 min 0 W/m 3,2 km/h (1 Bft) 96,00 %
07.02.2020 06:40 0,3 C -0,6 C -1,1 C 96 % 1029,2 hPa 0,0 l/m 0 min 0 min 0 W/m 0,0 km/h (0 Bft) 97,87 %
07.02.2020 06:42 0,3 C 0,0 C -1,1 C 96 % 1029,2 hPa 0,0 l/m 0 min 0 min 0 W/m 3,2 km/h (1 Bft) 89,36 %
07.02.2020 06:44 0,3 C 0,0 C -1,1 C 96 % 1029,1 hPa 0,0 l/m 0 min 0 min 0 W/m 3,2 km/h (1 Bft) 97,87 %
07.02.2020 06:46 0,4 C 0,0 C -1,1 C 96 % 1029,1 hPa 0,0 l/m 0 min 0 min 0 W/m 0,0 km/h (0 Bft) 97,83 %
07.02.2020 06:48 0,4 C 0,0 C -1,1 C 96 % 1029,1 hPa 0,0 l/m 0 min 0 min 0 W/m 0,0 km/h (0 Bft) 97,87 %
07.02.2020 06:50 0,4 C 0,0 C -1,1 C 96 % 1029,0 hPa 0,0 l/m 0 min 0 min 0 W/m 0,0 km/h (0 Bft) 100,00 %
07.02.2020 06:52 0,4 C -0,6 C -1,1 C 96 % 1029,0 hPa 0,0 l/m 0 min 0 min 0 W/m 0,0 km/h (0 Bft) 97,87 %
07.02.2020 06:54 0,4 C -0,6 C -1,1 C 96 % 1029,0 hPa 0,0 l/m 0 min 0 min 0 W/m 0,0 km/h (0 Bft) 100,00 %
07.02.2020 06:56 0,4 C -0,6 C -1,1 C 96 % 1028,9 hPa 0,0 l/m 0 min 0 min 0 W/m 0,0 km/h (0 Bft) 100,00 %
07.02.2020 06:58 0,4 C -0,6 C -1,1 C 96 % 1029,0 hPa 0,0 l/m 0 min 0 min 0 W/m 0,0 km/h (0 Bft) 100,00 %
07.02.2020 07:00 0,4 C 0,0 C -1,1 C 96 % 1028,9 hPa 0,0 l/m 0 min 0 min 0 W/m 3,2 km/h (1 Bft) 100,00 %
07.02.2020 07:02 0,4 C 0,0 C -0,6 C 96 % 1028,9 hPa 0,0 l/m 0 min 0 min 0 W/m 12,9 km/h (3 Bft) 100,00 %
07.02.2020 07:04 0,4 C 0,0 C -0,6 C 96 % 1029,0 hPa 0,0 l/m 0 min 0 min 0 W/m 3,2 km/h (1 Bft) 97,87 %
07.02.2020 07:06 0,4 C 0,0 C -0,6 C 96 % 1029,0 hPa 0,0 l/m 0 min 0 min 0 W/m 3,2 km/h (1 Bft) 100,00 %
07.02.2020 07:08 0,4 C 0,0 C -0,6 C 96 % 1029,0 hPa 0,0 l/m 0 min 0 min 0 W/m 6,4 km/h (2 Bft) 100,00 %
07.02.2020 07:10 0,4 C 0,0 C -0,6 C 96 % 1028,9 hPa 0,0 l/m 0 min 0 min 0 W/m 6,4 km/h (2 Bft) 100,00 %
07.02.2020 07:12 0,4 C 0,0 C -0,6 C 96 % 1028,9 hPa 0,0 l/m 0 min 0 min 0 W/m 6,4 km/h (2 Bft) 100,00 %
07.02.2020 07:14 0,5 C 0,0 C -0,6 C 96 % 1029,0 hPa 0,0 l/m 0 min 0 min 0 W/m 3,2 km/h (1 Bft) 97,87 %
07.02.2020 07:16 0,5 C 0,0 C -0,6 C 96 % 1029,0 hPa 0,0 l/m 0 min 0 min 0 W/m 3,2 km/h (1 Bft) 100,00 %
07.02.2020 07:18 0,5 C 0,0 C -0,6 C 96 % 1029,0 hPa 0,0 l/m 0 min 0 min 0 W/m 6,4 km/h (2 Bft) 97,87 %
07.02.2020 07:20 0,6 C 0,0 C -0,6 C 96 % 1028,9 hPa 0,0 l/m 0 min 0 min 0 W/m 6,4 km/h (2 Bft) 97,87 %
07.02.2020 07:22 0,6 C 0,0 C -0,6 C 96 % 1028,9 hPa 0,0 l/m 0 min 0 min 0 W/m 6,4 km/h (2 Bft) 97,83 %
07.02.2020 07:24 0,6 C 0,0 C -0,6 C 96 % 1028,9 hPa 0,0 l/m 0 min 0 min 0 W/m 12,9 km/h (3 Bft) 97,87 %
07.02.2020 07:26 0,6 C 0,0 C -0,6 C 96 % 1028,9 hPa 0,0 l/m 0 min 0 min 0 W/m 6,4 km/h (2 Bft) 97,87 %
07.02.2020 07:28 0,6 C 0,0 C -0,6 C 96 % 1028,9 hPa 0,0 l/m 0 min 0 min 0 W/m 6,4 km/h (2 Bft) 97,87 %
07.02.2020 07:30 0,6 C 0,0 C -0,6 C 96 % 1028,9 hPa 0,0 l/m 0 min 0 min 0 W/m 3,2 km/h (1 Bft) 95,74 %
07.02.2020 07:32 0,6 C 0,0 C -0,6 C 96 % 1028,9 hPa 0,0 l/m 0 min 0 min 0 W/m 12,9 km/h (3 Bft) 97,87 %
07.02.2020 07:34 0,6 C 0,0 C -0,6 C 96 % 1028,8 hPa 0,0 l/m 0 min 0 min 0 W/m 6,4 km/h (2 Bft) 97,83 %
07.02.2020 07:36 0,6 C 0,0 C -0,6 C 96 % 1028,9 hPa 0,0 l/m 0 min 0 min 0 W/m 6,4 km/h (2 Bft) 97,87 %
07.02.2020 07:38 0,6 C 0,0 C -0,6 C 96 % 1028,8 hPa 0,0 l/m 0 min 0 min 0 W/m 12,9 km/h (3 Bft) 97,87 %
07.02.2020 07:40 0,6 C 0,0 C -0,6 C 96 % 1028,7 hPa 0,0 l/m 0 min 0 min 0 W/m 6,4 km/h (2 Bft) 91,49 %
07.02.2020 07:42 0,6 C 0,0 C -0,6 C 95 % 1028,8 hPa 0,0 l/m 0 min 0 min 0 W/m 22,5 km/h (4 Bft) 93,62 %
07.02.2020 07:44 0,6 C 0,0 C -0,6 C 95 % 1028,7 hPa 0,0 l/m 0 min 0 min 0 W/m 12,9 km/h (3 Bft) 91,30 %
07.02.2020 07:46 0,6 C 0,0 C -0,6 C 95 % 1028,8 hPa 0,0 l/m 0 min 0 min 0 W/m 12,9 km/h (3 Bft) 95,74 %
07.02.2020 07:48 0,6 C 0,0 C -0,6 C 95 % 1028,7 hPa 0,0 l/m 0 min 0 min 0 W/m 12,9 km/h (3 Bft) 95,74 %
07.02.2020 07:50 0,6 C 0,0 C -0,6 C 95 % 1028,7 hPa 0,0 l/m 0 min 0 min 0 W/m 12,9 km/h (3 Bft) 95,74 %
07.02.2020 07:52 0,6 C 0,0 C -0,6 C 95 % 1028,7 hPa 0,0 l/m 0 min 0 min 0 W/m 6,4 km/h (2 Bft) 95,74 %
07.02.2020 07:54 0,6 C 0,0 C -0,6 C 95 % 1028,7 hPa 0,0 l/m 0 min 0 min 0 W/m 6,4 km/h (2 Bft) 95,74 %
07.02.2020 07:56 0,6 C 0,0 C -0,6 C 95 % 1028,7 hPa 0,0 l/m 0 min 0 min 0 W/m 12,9 km/h (3 Bft) 95,65 %
07.02.2020 07:58 0,7 C 0,0 C -0,6 C 95 % 1028,7 hPa 0,0 l/m 0 min 0 min 0 W/m 12,9 km/h (3 Bft) 95,74 %
07.02.2020 08:00 0,7 C 0,0 C -0,6 C 95 % 1028,6 hPa 0,0 l/m 0 min 0 min 0 W/m 6,4 km/h (2 Bft) 93,62 %
07.02.2020 08:02 0,7 C 0,0 C -0,6 C 95 % 1028,7 hPa 0,0 l/m 0 min 0 min 0 W/m 12,9 km/h (3 Bft) 91,49 %
07.02.2020 08:04 0,7 C 0,0 C -0,6 C 95 % 1028,7 hPa 0,0 l/m 0 min 0 min 0 W/m 9,7 km/h (2 Bft) 93,62 %
07.02.2020 08:06 0,7 C 0,0 C -0,6 C 95 % 1028,8 hPa 0,0 l/m 0 min 0 min 5 W/m 9,7 km/h (2 Bft) 53,33 %
07.02.2020 08:08 0,7 C 0,0 C -0,6 C 95 % 1028,7 hPa 0,0 l/m 0 min 0 min 5 W/m 6,4 km/h (2 Bft) 97,83 %
07.02.2020 08:10 0,7 C 0,0 C -0,6 C 95 % 1028,7 hPa 0,0 l/m 0 min 0 min 5 W/m 6,4 km/h (2 Bft) 97,87 %
07.02.2020 08:12 0,7 C 0,0 C -0,6 C 95 % 1028,7 hPa 0,0 l/m 0 min 0 min 7 W/m 9,7 km/h (2 Bft) 97,87 %
07.02.2020 08:14 0,7 C 0,0 C -0,6 C 95 % 1028,7 hPa 0,0 l/m 0 min 0 min 7 W/m 6,4 km/h (2 Bft) 97,87 %
07.02.2020 08:16 0,8 C 0,0 C -0,6 C 95 % 1028,7 hPa 0,0 l/m 0 min 0 min 9 W/m 6,4 km/h (2 Bft) 97,87 %
07.02.2020 08:18 0,8 C 0,0 C -0,6 C 95 % 1028,7 hPa 0,0 l/m 0 min 0 min 9 W/m 6,4 km/h (2 Bft) 97,83 %
07.02.2020 08:20 0,8 C 0,0 C -0,6 C 94 % 1028,8 hPa 0,0 l/m 0 min 0 min 10 W/m 6,4 km/h (2 Bft) 97,87 %
07.02.2020 08:22 0,8 C 0,0 C -0,6 C 94 % 1028,8 hPa 0,0 l/m 0 min 0 min 11 W/m 6,4 km/h (2 Bft) 95,74 %
07.02.2020 08:24 0,8 C 0,0 C -0,6 C 94 % 1028,7 hPa 0,0 l/m 0 min 0 min 12 W/m 9,7 km/h (2 Bft) 97,87 %
07.02.2020 08:26 0,7 C 0,0 C -0,6 C 94 % 1028,6 hPa 0,0 l/m 0 min 0 min 12 W/m 6,4 km/h (2 Bft) 97,87 %
07.02.2020 08:28 0,7 C 0,0 C -0,6 C 94 % 1028,6 hPa 0,0 l/m 0 min 0 min 13 W/m 0,0 km/h (0 Bft) 95,74 %
07.02.2020 08:30 0,8 C 0,0 C -0,6 C 94 % 1028,6 hPa 0,0 l/m 0 min 0 min 14 W/m 12,9 km/h (3 Bft) 95,65 %
07.02.2020 08:32 0,8 C 0,6 C -0,6 C 94 % 1028,6 hPa 0,0 l/m 0 min 0 min 14 W/m 12,9 km/h (3 Bft) 95,74 %
07.02.2020 08:34 0,8 C 0,6 C -0,6 C 94 % 1028,6 hPa 0,0 l/m 0 min 0 min 16 W/m 6,4 km/h (2 Bft) 97,87 %
07.02.2020 08:36 0,8 C 0,6 C -0,6 C 94 % 1028,6 hPa 0,0 l/m 0 min 0 min 16 W/m 12,9 km/h (3 Bft) 97,87 %
07.02.2020 08:38 0,8 C 0,6 C 0,0 C 94 % 1028,6 hPa 0,0 l/m 0 min 0 min 18 W/m 12,9 km/h (3 Bft) 95,74 %
07.02.2020 08:40 0,8 C 0,6 C 0,0 C 94 % 1028,6 hPa 0,0 l/m 0 min 0 min 18 W/m 6,4 km/h (2 Bft) 97,87 %
07.02.2020 08:42 0,8 C 0,6 C 0,0 C 94 % 1028,6 hPa 0,0 l/m 0 min 0 min 19 W/m 6,4 km/h (2 Bft) 97,83 %
07.02.2020 08:44 0,8 C 0,6 C 0,0 C 94 % 1028,6 hPa 0,0 l/m 0 min 0 min 19 W/m 12,9 km/h (3 Bft) 95,74 %
07.02.2020 08:46 0,8 C 0,6 C 0,0 C 94 % 1028,6 hPa 0,0 l/m 0 min 0 min 21 W/m 12,9 km/h (3 Bft) 97,87 %
07.02.2020 08:48 0,8 C 0,6 C 0,0 C 94 % 1028,6 hPa 0,0 l/m 0 min 0 min 21 W/m 12,9 km/h (3 Bft) 97,87 %
07.02.2020 08:50 0,8 C 0,6 C 0,0 C 94 % 1028,6 hPa 0,0 l/m 0 min 0 min 21 W/m 3,2 km/h (1 Bft) 97,87 %
07.02.2020 08:52 0,9 C 0,6 C 0,0 C 94 % 1028,6 hPa 0,0 l/m 0 min 0 min 23 W/m 12,9 km/h (3 Bft) 97,87 %
07.02.2020 08:54 0,9 C 0,6 C 0,0 C 94 % 1028,7 hPa 0,0 l/m 0 min 0 min 23 W/m 12,9 km/h (3 Bft) 97,83 %
07.02.2020 08:56 0,9 C 0,6 C 0,0 C 94 % 1028,8 hPa 0,0 l/m 0 min 0 min 25 W/m 6,4 km/h (2 Bft) 95,74 %
07.02.2020 08:58 0,9 C 0,6 C 0,0 C 94 % 1028,7 hPa 0,0 l/m 0 min 0 min 25 W/m 6,4 km/h (2 Bft) 100,00 %
07.02.2020 09:00 0,9 C 0,6 C 0,0 C 94 % 1028,7 hPa 0,0 l/m 0 min 0 min 25 W/m 16,1 km/h (3 Bft) 97,87 %
07.02.2020 09:02 0,9 C 0,6 C 0,0 C 94 % 1028,6 hPa 0,0 l/m 0 min 0 min 26 W/m 22,5 km/h (4 Bft) 96,23 %
07.02.2020 09:04 0,9 C 0,6 C 0,0 C 94 % 1028,6 hPa 0,0 l/m 0 min 0 min 26 W/m 12,9 km/h (3 Bft) 97,83 %
07.02.2020 09:06 1,0 C 0,6 C 0,0 C 94 % 1028,6 hPa 0,0 l/m 0 min 0 min 26 W/m 16,1 km/h (3 Bft) 97,87 %
07.02.2020 09:08 1,0 C 0,6 C 0,0 C 94 % 1028,6 hPa 0,0 l/m 0 min 0 min 28 W/m 16,1 km/h (3 Bft) 97,87 %
07.02.2020 09:10 1,0 C 1,1 C 0,0 C 94 % 1028,6 hPa 0,0 l/m 0 min 0 min 28 W/m 16,1 km/h (3 Bft) 95,74 %
07.02.2020 09:12 1,1 C 1,1 C 0,0 C 94 % 1028,6 hPa 0,0 l/m 0 min 0 min 28 W/m 19,3 km/h (3 Bft) 97,87 %
07.02.2020 09:14 1,1 C 1,1 C 0,0 C 94 % 1028,6 hPa 0,0 l/m 0 min 0 min 30 W/m 16,1 km/h (3 Bft) 100,00 %
07.02.2020 09:16 1,1 C 1,1 C 0,6 C 94 % 1028,6 hPa 0,0 l/m 0 min 0 min 30 W/m 16,1 km/h (3 Bft) 97,83 %
07.02.2020 09:18 1,2 C 1,1 C 0,6 C 94 % 1028,5 hPa 0,0 l/m 0 min 0 min 30 W/m 22,5 km/h (4 Bft) 100,00 %
07.02.2020 09:20 1,2 C 1,1 C 0,6 C 94 % 1028,5 hPa 0,0 l/m 0 min 0 min 30 W/m 19,3 km/h (3 Bft) 100,00 %
07.02.2020 09:22 1,2 C 1,1 C 0,6 C 94 % 1028,5 hPa 0,0 l/m 0 min 0 min 31 W/m 19,3 km/h (3 Bft) 100,00 %
07.02.2020 09:24 1,2 C 1,1 C 0,6 C 94 % 1028,5 hPa 0,0 l/m 0 min 0 min 32 W/m 12,9 km/h (3 Bft) 97,87 %
07.02.2020 09:26 1,3 C 1,1 C 0,6 C 94 % 1028,5 hPa 0,0 l/m 0 min 0 min 32 W/m 22,5 km/h (4 Bft) 100,00 %
07.02.2020 09:28 1,3 C 1,7 C 0,6 C 93 % 1028,5 hPa 0,0 l/m 0 min 0 min 62 W/m 19,3 km/h (3 Bft) 93,62 %
07.02.2020 09:30 1,3 C 3,3 C 0,6 C 94 % 1028,5 hPa 0,0 l/m 2 min 0 min 139 W/m 16,1 km/h (3 Bft) 100,00 %
07.02.2020 09:32 1,4 C 4,4 C 0,6 C 94 % 1028,4 hPa 0,0 l/m 2 min 0 min 148 W/m 12,9 km/h (3 Bft) 100,00 %
07.02.2020 09:34 1,4 C 4,4 C 0,6 C 93 % 1028,4 hPa 0,0 l/m 2 min 0 min 154 W/m 12,9 km/h (3 Bft) 100,00 %
07.02.2020 09:36 1,5 C 4,4 C 0,6 C 93 % 1028,4 hPa 0,0 l/m 2 min 0 min 159 W/m 19,3 km/h (3 Bft) 100,00 %
07.02.2020 09:38 1,6 C 4,4 C 1,1 C 93 % 1028,3 hPa 0,0 l/m 2 min 0 min 163 W/m 22,5 km/h (4 Bft) 100,00 %
07.02.2020 09:40 1,7 C 5,0 C 1,1 C 93 % 1028,3 hPa 0,0 l/m 2 min 0 min 168 W/m 22,5 km/h (4 Bft) 100,00 %
07.02.2020 09:42 1,8 C 5,0 C 1,1 C 93 % 1028,3 hPa 0,0 l/m 2 min 0 min 171 W/m 19,3 km/h (3 Bft) 100,00 %
07.02.2020 09:44 1,9 C 5,6 C 1,1 C 93 % 1028,3 hPa 0,0 l/m 2 min 0 min 177 W/m 16,1 km/h (3 Bft) 100,00 %
07.02.2020 09:46 2,0 C 5,0 C 1,1 C 93 % 1028,3 hPa 0,0 l/m 2 min 0 min 180 W/m 25,7 km/h (4 Bft) 100,00 %
07.02.2020 09:48 2,1 C 5,6 C 1,1 C 93 % 1028,3 hPa 0,0 l/m 2 min 0 min 184 W/m 19,3 km/h (3 Bft) 100,00 %
07.02.2020 09:50 2,2 C 5,6 C 1,1 C 92 % 1028,3 hPa 0,0 l/m 2 min 0 min 189 W/m 12,9 km/h (3 Bft) 100,00 %
07.02.2020 09:52 2,2 C 5,6 C 1,1 C 92 % 1028,3 hPa 0,0 l/m 2 min 0 min 192 W/m 22,5 km/h (4 Bft) 100,00 %
07.02.2020 09:54 2,3 C 5,6 C 1,7 C 92 % 1028,3 hPa 0,0 l/m 2 min 0 min 196 W/m 25,7 km/h (4 Bft) 100,00 %
07.02.2020 09:56 2,4 C 5,6 C 1,7 C 92 % 1028,3 hPa 0,0 l/m 2 min 0 min 199 W/m 29,0 km/h (5 Bft) 97,87 %
07.02.2020 09:58 2,5 C 5,6 C 1,7 C 91 % 1028,3 hPa 0,0 l/m 2 min 0 min 204 W/m 16,1 km/h (3 Bft) 100,00 %
07.02.2020 10:00 2,6 C 6,1 C 1,7 C 91 % 1028,3 hPa 0,0 l/m 2 min 0 min 207 W/m 25,7 km/h (4 Bft) 100,00 %
07.02.2020 10:02 2,6 C 5,6 C 1,7 C 91 % 1028,3 hPa 0,0 l/m 2 min 0 min 212 W/m 32,2 km/h (5 Bft) 100,00 %
07.02.2020 10:04 2,7 C 6,1 C 1,7 C 90 % 1028,3 hPa 0,0 l/m 2 min 0 min 216 W/m 22,5 km/h (4 Bft) 100,00 %
07.02.2020 10:06 2,8 C 6,1 C 1,7 C 90 % 1028,3 hPa 0,0 l/m 2 min 0 min 221 W/m 19,3 km/h (3 Bft) 100,00 %
07.02.2020 10:08 2,8 C 6,1 C 1,7 C 89 % 1028,2 hPa 0,0 l/m 2 min 0 min 227 W/m 22,5 km/h (4 Bft) 100,00 %
07.02.2020 10:10 2,9 C 6,1 C 1,7 C 89 % 1028,2 hPa 0,0 l/m 2 min 0 min 231 W/m 22,5 km/h (4 Bft) 100,00 %
07.02.2020 10:12 3,0 C 6,1 C 1,7 C 88 % 1028,2 hPa 0,0 l/m 2 min 0 min 236 W/m 25,7 km/h (4 Bft) 100,00 %
07.02.2020 10:14 3,1 C 6,1 C 1,7 C 88 % 1028,2 hPa 0,0 l/m 2 min 0 min 242 W/m 29,0 km/h (5 Bft) 100,00 %
07.02.2020 10:16 3,1 C 6,7 C 2,2 C 88 % 1028,2 hPa 0,0 l/m 2 min 0 min 246 W/m 25,7 km/h (4 Bft) 100,00 %
07.02.2020 10:18 3,2 C 6,7 C 2,2 C 87 % 1028,1 hPa 0,0 l/m 2 min 0 min 251 W/m 35,4 km/h (5 Bft) 97,87 %
07.02.2020 10:20 3,3 C 6,1 C 2,2 C 87 % 1028,1 hPa 0,0 l/m 2 min 0 min 256 W/m 35,4 km/h (5 Bft) 97,87 %
07.02.2020 10:22 3,3 C 6,1 C 2,2 C 87 % 1028,1 hPa 0,0 l/m 2 min 0 min 260 W/m 22,5 km/h (4 Bft) 97,87 %
07.02.2020 10:24 3,4 C 6,1 C 2,2 C 86 % 1028,1 hPa 0,0 l/m 2 min 0 min 266 W/m 25,7 km/h (4 Bft) 97,83 %
07.02.2020 10:26 3,4 C 6,7 C 2,2 C 86 % 1028,0 hPa 0,0 l/m 2 min 0 min 270 W/m 25,7 km/h (4 Bft) 97,87 %
07.02.2020 10:28 3,6 C 7,2 C 2,2 C 86 % 1028,0 hPa 0,0 l/m 2 min 0 min 274 W/m 22,5 km/h (4 Bft) 93,62 %
07.02.2020 10:30 3,6 C 7,2 C 2,8 C 86 % 1027,9 hPa 0,0 l/m 2 min 0 min 278 W/m 38,6 km/h (5 Bft) 95,74 %
07.02.2020 10:32 3,7 C 6,7 C 2,8 C 85 % 1027,9 hPa 0,0 l/m 2 min 0 min 280 W/m 35,4 km/h (5 Bft) 93,62 %
07.02.2020 10:34 3,8 C 6,7 C 2,8 C 85 % 1027,9 hPa 0,0 l/m 2 min 0 min 286 W/m 22,5 km/h (4 Bft) 97,87 %
07.02.2020 10:36 3,8 C 7,2 C 2,8 C 85 % 1028,0 hPa 0,0 l/m 2 min 0 min 291 W/m 29,0 km/h (5 Bft) 95,65 %
07.02.2020 10:38 3,9 C 7,2 C 2,8 C 85 % 1028,0 hPa 0,0 l/m 2 min 0 min 294 W/m 25,7 km/h (4 Bft) 95,74 %
07.02.2020 10:40 4,0 C 7,8 C 2,8 C 85 % 1028,0 hPa 0,0 l/m 2 min 0 min 298 W/m 22,5 km/h (4 Bft) 97,87 %
07.02.2020 10:42 4,1 C 7,2 C 2,8 C 84 % 1028,0 hPa 0,0 l/m 2 min 0 min 301 W/m 29,0 km/h (5 Bft) 95,74 %
07.02.2020 10:44 4,1 C 7,2 C 2,8 C 84 % 1028,0 hPa 0,0 l/m 2 min 0 min 305 W/m 35,4 km/h (5 Bft) 95,74 %
07.02.2020 10:46 4,1 C 7,8 C 2,8 C 84 % 1027,9 hPa 0,0 l/m 2 min 0 min 309 W/m 22,5 km/h (4 Bft) 93,48 %
07.02.2020 10:48 4,2 C 7,8 C 2,8 C 84 % 1028,0 hPa 0,0 l/m 2 min 0 min 313 W/m 29,0 km/h (5 Bft) 93,62 %
07.02.2020 10:50 4,3 C 7,2 C 2,8 C 83 % 1028,0 hPa 0,2 l/m 2 min 0 min 316 W/m 48,3 km/h (6 Bft) 82,98 %
07.02.2020 10:52 4,3 C 7,2 C 2,8 C 83 % 1027,9 hPa 0,0 l/m 2 min 0 min 318 W/m 25,7 km/h (4 Bft) 66,67 %
07.02.2020 10:54 4,4 C 7,8 C 3,3 C 83 % 1027,9 hPa 0,0 l/m 2 min 0 min 322 W/m 29,0 km/h (5 Bft) 97,87 %
07.02.2020 10:56 4,4 C 7,2 C 3,3 C 83 % 1027,9 hPa 0,0 l/m 2 min 0 min 316 W/m 19,3 km/h (3 Bft) 95,74 %
07.02.2020 10:58 4,5 C 7,2 C 3,3 C 82 % 1027,9 hPa 0,0 l/m 2 min 0 min 316 W/m 35,4 km/h (5 Bft) 95,65 %
07.02.2020 11:00 4,6 C 6,7 C 3,3 C 82 % 1027,8 hPa 0,0 l/m 2 min 0 min 299 W/m 25,7 km/h (4 Bft) 97,87 %
07.02.2020 11:02 4,6 C 6,7 C 3,3 C 82 % 1027,8 hPa 0,0 l/m 2 min 0 min 303 W/m 29,0 km/h (5 Bft) 95,74 %
07.02.2020 11:04 4,6 C 6,7 C 3,3 C 82 % 1027,8 hPa 0,0 l/m 2 min 0 min 312 W/m 35,4 km/h (5 Bft) 97,87 %
07.02.2020 11:06 4,7 C 7,2 C 3,3 C 81 % 1027,8 hPa 0,0 l/m 2 min 0 min 322 W/m 22,5 km/h (4 Bft) 95,74 %
07.02.2020 11:08 4,7 C 7,2 C 3,3 C 81 % 1027,8 hPa 0,0 l/m 2 min 0 min 289 W/m 19,3 km/h (3 Bft) 97,87 %
07.02.2020 11:10 4,7 C 6,7 C 3,3 C 81 % 1027,8 hPa 0,0 l/m 2 min 0 min 317 W/m 25,7 km/h (4 Bft) 95,65 %
07.02.2020 11:12 4,8 C 6,7 C 3,3 C 81 % 1027,8 hPa 0,0 l/m 2 min 0 min 264 W/m 22,5 km/h (4 Bft) 97,87 %
07.02.2020 11:14 4,8 C 6,1 C 3,3 C 81 % 1027,8 hPa 0,0 l/m 2 min 0 min 271 W/m 22,5 km/h (4 Bft) 95,74 %
07.02.2020 11:16 4,8 C 6,7 C 3,3 C 81 % 1027,7 hPa 0,0 l/m 2 min 0 min 205 W/m 25,7 km/h (4 Bft) 95,74 %
07.02.2020 11:18 4,8 C 6,7 C 3,3 C 81 % 1027,8 hPa 0,0 l/m 2 min 0 min 206 W/m 38,6 km/h (5 Bft) 100,00 %
07.02.2020 11:20 4,9 C 7,2 C 3,3 C 81 % 1027,9 hPa 0,0 l/m 2 min 0 min 316 W/m 29,0 km/h (5 Bft) 97,87 %
07.02.2020 11:22 4,9 C 7,2 C 3,3 C 81 % 1027,8 hPa 0,0 l/m 2 min 0 min 314 W/m 25,7 km/h (4 Bft) 100,00 %
07.02.2020 11:24 4,9 C 7,8 C 3,9 C 80 % 1027,8 hPa 0,0 l/m 2 min 0 min 344 W/m 29,0 km/h (5 Bft) 97,87 %
07.02.2020 11:26 5,0 C 8,3 C 3,9 C 80 % 1027,8 hPa 0,0 l/m 2 min 0 min 348 W/m 22,5 km/h (4 Bft) 100,00 %
07.02.2020 11:28 5,1 C 8,3 C 3,9 C 81 % 1027,8 hPa 0,0 l/m 2 min 0 min 372 W/m 25,7 km/h (4 Bft) 100,00 %
07.02.2020 11:30 5,1 C 8,3 C 3,9 C 81 % 1027,8 hPa 0,0 l/m 2 min 0 min 336 W/m 29,0 km/h (5 Bft) 97,87 %
07.02.2020 11:32 5,2 C 8,3 C 3,9 C 81 % 1027,8 hPa 0,0 l/m 2 min 0 min 315 W/m 22,5 km/h (4 Bft) 97,87 %
07.02.2020 11:34 5,3 C 8,3 C 3,9 C 80 % 1027,7 hPa 0,0 l/m 2 min 0 min 295 W/m 19,3 km/h (3 Bft) 97,83 %
07.02.2020 11:36 5,3 C 8,9 C 3,9 C 80 % 1027,7 hPa 0,0 l/m 2 min 0 min 274 W/m 22,5 km/h (4 Bft) 97,87 %
07.02.2020 11:38 5,4 C 9,4 C 4,4 C 80 % 1027,7 hPa 0,0 l/m 2 min 0 min 361 W/m 22,5 km/h (4 Bft) 100,00 %
07.02.2020 11:40 5,4 C 9,4 C 4,4 C 80 % 1027,7 hPa 0,0 l/m 2 min 0 min 387 W/m 22,5 km/h (4 Bft) 100,00 %
07.02.2020 11:42 5,5 C 9,4 C 4,4 C 80 % 1027,7 hPa 0,0 l/m 2 min 0 min 389 W/m 25,7 km/h (4 Bft) 100,00 %
07.02.2020 11:44 5,6 C 8,9 C 4,4 C 79 % 1027,7 hPa 0,0 l/m 2 min 0 min 391 W/m 38,6 km/h (5 Bft) 97,87 %
07.02.2020 11:46 5,6 C 9,4 C 4,4 C 79 % 1027,6 hPa 0,0 l/m 2 min 0 min 396 W/m 25,7 km/h (4 Bft) 97,83 %
07.02.2020 11:48 5,7 C 8,9 C 4,4 C 79 % 1027,6 hPa 0,0 l/m 2 min 0 min 397 W/m 29,0 km/h (5 Bft) 97,87 %
07.02.2020 11:50 5,8 C 9,4 C 4,4 C 79 % 1027,5 hPa 0,0 l/m 2 min 0 min 402 W/m 29,0 km/h (5 Bft) 100,00 %
07.02.2020 11:52 5,9 C 9,4 C 5,0 C 79 % 1027,5 hPa 0,0 l/m 2 min 0 min 402 W/m 22,5 km/h (4 Bft) 97,87 %
07.02.2020 11:54 6,0 C 10,0 C 5,0 C 79 % 1027,4 hPa 0,0 l/m 2 min 0 min 403 W/m 22,5 km/h (4 Bft) 97,87 %
07.02.2020 11:56 6,1 C 9,4 C 5,0 C 78 % 1027,4 hPa 0,0 l/m 2 min 0 min 404 W/m 35,4 km/h (5 Bft) 100,00 %
07.02.2020 11:58 6,1 C 8,9 C 5,0 C 77 % 1027,4 hPa 0,0 l/m 2 min 0 min 407 W/m 32,2 km/h (5 Bft) 100,00 %
07.02.2020 12:00 6,1 C 9,4 C 5,0 C 77 % 1027,4 hPa 0,0 l/m 2 min 0 min 408 W/m 25,7 km/h (4 Bft) 97,87 %
07.02.2020 12:02 6,2 C 10,0 C 5,0 C 77 % 1027,4 hPa 0,0 l/m 2 min 0 min 410 W/m 22,5 km/h (4 Bft) 97,87 %
07.02.2020 12:04 6,3 C 9,4 C 5,0 C 77 % 1027,3 hPa 0,0 l/m 2 min 0 min 411 W/m 25,7 km/h (4 Bft) 97,87 %
07.02.2020 12:06 6,3 C 10,0 C 5,0 C 77 % 1027,3 hPa 0,0 l/m 2 min 0 min 413 W/m 29,0 km/h (5 Bft) 100,00 %
07.02.2020 12:08 6,4 C 9,4 C 5,0 C 77 % 1027,2 hPa 0,0 l/m 2 min 0 min 414 W/m 29,0 km/h (5 Bft) 100,00 %
07.02.2020 12:10 6,4 C 9,4 C 5,0 C 76 % 1027,2 hPa 0,0 l/m 2 min 0 min 415 W/m 35,4 km/h (5 Bft) 100,00 %
07.02.2020 12:12 6,5 C 10,0 C 5,6 C 76 % 1027,1 hPa 0,0 l/m 2 min 0 min 417 W/m 25,7 km/h (4 Bft) 95,74 %
07.02.2020 12:14 6,5 C 10,0 C 5,6 C 76 % 1027,1 hPa 0,0 l/m 2 min 0 min 417 W/m 38,6 km/h (5 Bft) 100,00 %
07.02.2020 12:16 6,6 C 10,0 C 5,6 C 75 % 1027,1 hPa 0,0 l/m 2 min 0 min 419 W/m 35,4 km/h (5 Bft) 100,00 %
07.02.2020 12:18 6,6 C 10,0 C 5,6 C 75 % 1027,1 hPa 0,0 l/m 2 min 0 min 420 W/m 35,4 km/h (5 Bft) 95,74 %
07.02.2020 12:20 6,7 C 9,4 C 5,6 C 75 % 1027,0 hPa 0,0 l/m 2 min 0 min 423 W/m 35,4 km/h (5 Bft) 97,83 %
07.02.2020 12:22 6,7 C 10,0 C 5,6 C 75 % 1027,0 hPa 0,0 l/m 2 min 0 min 424 W/m 35,4 km/h (5 Bft) 97,87 %
07.02.2020 12:24 6,7 C 9,4 C 5,6 C 75 % 1027,0 hPa 0,0 l/m 2 min 0 min 425 W/m 45,1 km/h (6 Bft) 97,87 %
07.02.2020 12:26 6,7 C 10,0 C 5,6 C 74 % 1027,0 hPa 0,0 l/m 2 min 0 min 425 W/m 38,6 km/h (5 Bft) 100,00 %
07.02.2020 12:28 6,7 C 10,6 C 5,6 C 74 % 1026,9 hPa 0,0 l/m 2 min 0 min 425 W/m 22,5 km/h (4 Bft) 97,87 %
07.02.2020 12:30 6,8 C 10,0 C 5,6 C 74 % 1026,9 hPa 0,0 l/m 2 min 0 min 425 W/m 29,0 km/h (5 Bft) 95,74 %
07.02.2020 12:32 6,8 C 10,0 C 5,6 C 74 % 1026,9 hPa 0,0 l/m 2 min 0 min 424 W/m 35,4 km/h (5 Bft) 97,83 %
07.02.2020 12:34 6,9 C 9,4 C 5,6 C 73 % 1026,9 hPa 0,0 l/m 2 min 0 min 426 W/m 41,8 km/h (6 Bft) 97,87 %
07.02.2020 12:36 6,9 C 9,4 C 6,1 C 73 % 1026,9 hPa 0,0 l/m 2 min 0 min 424 W/m 45,1 km/h (6 Bft) 97,87 %
07.02.2020 12:38 6,9 C 10,0 C 6,7 C 73 % 1026,9 hPa 0,0 l/m 2 min 0 min 426 W/m 41,8 km/h (6 Bft) 97,87 %
07.02.2020 12:40 7,0 C 10,0 C 8,3 C 73 % 1026,8 hPa 0,0 l/m 2 min 0 min 428 W/m 29,0 km/h (5 Bft) 95,74 %
07.02.2020 12:42 7,1 C 10,6 C 9,4 C 73 % 1026,7 hPa 0,0 l/m 2 min 0 min 430 W/m 32,2 km/h (5 Bft) 97,83 %
07.02.2020 12:44 7,1 C 10,6 C 10,0 C 73 % 1026,7 hPa 0,0 l/m 2 min 0 min 430 W/m 35,4 km/h (5 Bft) 97,87 %
07.02.2020 12:46 7,1 C 10,6 C 10,6 C 73 % 1026,6 hPa 0,0 l/m 2 min 0 min 429 W/m 25,7 km/h (4 Bft) 95,74 %
07.02.2020 12:48 7,2 C 10,0 C 8,9 C 73 % 1026,7 hPa 0,0 l/m 2 min 0 min 431 W/m 35,4 km/h (5 Bft) 93,62 %
07.02.2020 12:50 7,2 C 10,0 C 8,3 C 72 % 1026,7 hPa 0,0 l/m 2 min 0 min 429 W/m 32,2 km/h (5 Bft) 91,49 %
07.02.2020 12:52 7,3 C 10,6 C 8,3 C 72 % 1026,7 hPa 0,0 l/m 2 min 0 min 429 W/m 25,7 km/h (4 Bft) 95,74 %
07.02.2020 12:54 7,3 C 10,6 C 7,8 C 72 % 1026,6 hPa 0,0 l/m 2 min 0 min 429 W/m 22,5 km/h (4 Bft) 93,62 %
07.02.2020 12:56 7,4 C 11,1 C 7,8 C 72 % 1026,5 hPa 0,0 l/m 2 min 0 min 430 W/m 25,7 km/h (4 Bft) 93,48 %
07.02.2020 12:58 7,4 C 10,6 C 7,8 C 72 % 1026,5 hPa 0,0 l/m 2 min 0 min 429 W/m 35,4 km/h (5 Bft) 93,62 %
07.02.2020 13:00 7,4 C 10,0 C 8,3 C 72 % 1026,5 hPa 0,0 l/m 2 min 0 min 427 W/m 38,6 km/h (5 Bft) 93,62 %
07.02.2020 13:02 7,4 C 10,0 C 8,9 C 71 % 1026,4 hPa 0,0 l/m 2 min 0 min 428 W/m 35,4 km/h (5 Bft) 93,62 %
07.02.2020 13:04 7,4 C 10,6 C 8,9 C 71 % 1026,4 hPa 0,0 l/m 2 min 0 min 427 W/m 32,2 km/h (5 Bft) 91,49 %
07.02.2020 13:06 7,4 C 10,6 C 8,9 C 72 % 1026,3 hPa 0,0 l/m 2 min 0 min 427 W/m 32,2 km/h (5 Bft) 93,48 %
07.02.2020 13:08 7,4 C 10,0 C 8,9 C 71 % 1026,3 hPa 0,0 l/m 2 min 0 min 425 W/m 35,4 km/h (5 Bft) 93,62 %
07.02.2020 13:10 7,5 C 10,6 C 8,3 C 71 % 1026,3 hPa 0,0 l/m 2 min 0 min 424 W/m 29,0 km/h (5 Bft) 95,74 %
07.02.2020 13:12 7,5 C 10,6 C 7,8 C 71 % 1026,3 hPa 0,0 l/m 2 min 0 min 425 W/m 32,2 km/h (5 Bft) 93,62 %
07.02.2020 13:14 7,5 C 10,6 C 7,8 C 71 % 1026,2 hPa 0,0 l/m 2 min 0 min 423 W/m 29,0 km/h (5 Bft) 93,62 %
07.02.2020 13:16 7,6 C 10,6 C 7,2 C 71 % 1026,3 hPa 0,0 l/m 2 min 0 min 421 W/m 32,2 km/h (5 Bft) 95,74 %
07.02.2020 13:18 7,6 C 10,6 C 6,7 C 71 % 1026,3 hPa 0,0 l/m 2 min 0 min 424 W/m 35,4 km/h (5 Bft) 93,48 %
07.02.2020 13:20 7,6 C 10,6 C 6,7 C 71 % 1026,3 hPa 0,0 l/m 2 min 0 min 420 W/m 29,0 km/h (5 Bft) 93,62 %
07.02.2020 13:22 7,6 C 10,6 C 6,7 C 71 % 1026,3 hPa 0,0 l/m 2 min 0 min 417 W/m 32,2 km/h (5 Bft) 93,62 %
07.02.2020 13:24 7,7 C 10,6 C 6,7 C 71 % 1026,3 hPa 0,0 l/m 2 min 0 min 416 W/m 25,7 km/h (4 Bft) 93,62 %
07.02.2020 13:26 7,7 C 11,1 C 6,7 C 71 % 1026,3 hPa 0,0 l/m 2 min 0 min 415 W/m 41,8 km/h (6 Bft) 91,49 %
07.02.2020 13:28 7,7 C 10,6 C 6,7 C 71 % 1026,2 hPa 0,0 l/m 2 min 0 min 417 W/m 41,8 km/h (6 Bft) 95,74 %
07.02.2020 13:30 7,8 C 10,6 C 6,7 C 71 % 1026,1 hPa 0,0 l/m 2 min 0 min 415 W/m 32,2 km/h (5 Bft) 97,83 %
07.02.2020 13:32 7,8 C 10,6 C 6,7 C 71 % 1026,1 hPa 0,0 l/m 2 min 0 min 411 W/m 35,4 km/h (5 Bft) 97,87 %
07.02.2020 13:34 7,8 C 10,6 C 6,7 C 70 % 1026,1 hPa 0,0 l/m 2 min 0 min 414 W/m 35,4 km/h (5 Bft) 97,87 %
07.02.2020 13:36 7,8 C 10,6 C 6,7 C 70 % 1026,1 hPa 0,0 l/m 2 min 0 min 409 W/m 35,4 km/h (5 Bft) 95,74 %
07.02.2020 13:38 7,8 C 10,0 C 6,7 C 70 % 1026,1 hPa 0,0 l/m 2 min 0 min 409 W/m 41,8 km/h (6 Bft) 97,87 %
07.02.2020 13:40 7,9 C 10,6 C 6,7 C 70 % 1026,1 hPa 0,0 l/m 2 min 0 min 407 W/m 25,7 km/h (4 Bft) 97,87 %
07.02.2020 13:42 7,9 C 10,6 C 7,2 C 70 % 1026,0 hPa 0,0 l/m 2 min 0 min 407 W/m 35,4 km/h (5 Bft) 97,83 %
07.02.2020 13:44 7,9 C 10,6 C 6,7 C 70 % 1026,0 hPa 0,0 l/m 2 min 0 min 406 W/m 32,2 km/h (5 Bft) 95,74 %
07.02.2020 13:46 7,9 C 11,1 C 6,7 C 70 % 1026,0 hPa 0,0 l/m 2 min 0 min 405 W/m 22,5 km/h (4 Bft) 97,87 %
07.02.2020 13:48 7,9 C 11,7 C 7,2 C 70 % 1026,0 hPa 0,0 l/m 2 min 0 min 404 W/m 22,5 km/h (4 Bft) 97,87 %
07.02.2020 13:50 8,0 C 11,7 C 7,2 C 70 % 1026,0 hPa 0,0 l/m 2 min 0 min 402 W/m 22,5 km/h (4 Bft) 97,87 %
07.02.2020 13:52 8,1 C 11,7 C 7,2 C 70 % 1026,0 hPa 0,0 l/m 2 min 0 min 402 W/m 25,7 km/h (4 Bft) 100,00 %
07.02.2020 13:54 8,1 C 12,2 C 7,2 C 70 % 1025,8 hPa 0,0 l/m 2 min 0 min 401 W/m 22,5 km/h (4 Bft) 100,00 %
07.02.2020 13:56 8,2 C 11,7 C 7,2 C 70 % 1025,8 hPa 0,0 l/m 2 min 0 min 399 W/m 25,7 km/h (4 Bft) 100,00 %
07.02.2020 13:58 8,2 C 11,1 C 7,2 C 70 % 1025,9 hPa 0,0 l/m 2 min 0 min 397 W/m 38,6 km/h (5 Bft) 100,00 %
07.02.2020 14:00 8,2 C 11,7 C 7,2 C 69 % 1025,9 hPa 0,0 l/m 2 min 0 min 395 W/m 29,0 km/h (5 Bft) 97,87 %
07.02.2020 14:02 8,2 C 11,1 C 7,2 C 69 % 1025,8 hPa 0,0 l/m 2 min 0 min 392 W/m 22,5 km/h (4 Bft) 97,87 %
07.02.2020 14:04 8,3 C 11,7 C 7,2 C 69 % 1025,8 hPa 0,0 l/m 2 min 0 min 390 W/m 25,7 km/h (4 Bft) 97,83 %
07.02.2020 14:06 8,3 C 11,1 C 7,2 C 69 % 1025,8 hPa 0,0 l/m 2 min 0 min 386 W/m 29,0 km/h (5 Bft) 100,00 %
07.02.2020 14:08 8,3 C 11,1 C 7,2 C 69 % 1025,7 hPa 0,0 l/m 2 min 0 min 387 W/m 29,0 km/h (5 Bft) 100,00 %
07.02.2020 14:10 8,3 C 11,1 C 7,2 C 69 % 1025,7 hPa 0,0 l/m 2 min 0 min 385 W/m 29,0 km/h (5 Bft) 95,74 %
07.02.2020 14:12 8,3 C 11,1 C 7,2 C 69 % 1025,7 hPa 0,0 l/m 2 min 0 min 384 W/m 25,7 km/h (4 Bft) 100,00 %
07.02.2020 14:14 8,3 C 11,7 C 7,2 C 69 % 1025,6 hPa 0,0 l/m 2 min 0 min 381 W/m 22,5 km/h (4 Bft) 100,00 %
07.02.2020 14:16 8,3 C 11,7 C 7,2 C 69 % 1025,6 hPa 0,0 l/m 2 min 0 min 379 W/m 22,5 km/h (4 Bft) 97,83 %
07.02.2020 14:18 8,3 C 11,1 C 7,2 C 69 % 1025,5 hPa 0,0 l/m 2 min 0 min 377 W/m 35,4 km/h (5 Bft) 100,00 %
07.02.2020 14:20 8,4 C 11,1 C 7,2 C 69 % 1025,5 hPa 0,0 l/m 2 min 0 min 375 W/m 29,0 km/h (5 Bft) 100,00 %
07.02.2020 14:22 8,4 C 11,1 C 7,2 C 69 % 1025,5 hPa 0,0 l/m 2 min 0 min 373 W/m 29,0 km/h (5 Bft) 100,00 %
07.02.2020 14:24 8,4 C 11,1 C 7,2 C 69 % 1025,5 hPa 0,0 l/m 2 min 0 min 369 W/m 29,0 km/h (5 Bft) 100,00 %
07.02.2020 14:26 8,4 C 11,1 C 7,2 C 69 % 1025,4 hPa 0,0 l/m 2 min 0 min 366 W/m 29,0 km/h (5 Bft) 100,00 %
07.02.2020 14:28 8,4 C 11,1 C 7,2 C 68 % 1025,4 hPa 0,0 l/m 2 min 0 min 364 W/m 32,2 km/h (5 Bft) 100,00 %
07.02.2020 14:30 8,4 C 11,1 C 7,2 C 69 % 1025,4 hPa 0,0 l/m 2 min 0 min 361 W/m 35,4 km/h (5 Bft) 100,00 %
07.02.2020 14:32 8,4 C 11,1 C 7,2 C 68 % 1025,3 hPa 0,0 l/m 2 min 0 min 359 W/m 35,4 km/h (5 Bft) 100,00 %
07.02.2020 14:34 8,5 C 11,1 C 7,2 C 68 % 1025,3 hPa 0,0 l/m 2 min 0 min 356 W/m 32,2 km/h (5 Bft) 100,00 %
07.02.2020 14:36 8,5 C 11,1 C 7,2 C 68 % 1025,3 hPa 0,0 l/m 2 min 0 min 353 W/m 22,5 km/h (4 Bft) 100,00 %
07.02.2020 14:38 8,6 C 11,7 C 7,2 C 69 % 1025,2 hPa 0,0 l/m 2 min 0 min 350 W/m 25,7 km/h (4 Bft) 100,00 %
07.02.2020 14:40 8,6 C 10,6 C 7,2 C 68 % 1025,2 hPa 0,0 l/m 2 min 0 min 348 W/m 35,4 km/h (5 Bft) 100,00 %
07.02.2020 14:42 8,6 C 11,1 C 7,2 C 68 % 1025,2 hPa 0,0 l/m 2 min 0 min 344 W/m 29,0 km/h (5 Bft) 100,00 %
07.02.2020 14:44 8,6 C 11,1 C 7,2 C 68 % 1025,2 hPa 0,0 l/m 2 min 0 min 342 W/m 41,8 km/h (6 Bft) 100,00 %
07.02.2020 14:46 8,5 C 11,1 C 7,2 C 68 % 1025,2 hPa 0,0 l/m 2 min 0 min 338 W/m 25,7 km/h (4 Bft) 100,00 %
07.02.2020 14:48 8,5 C 11,1 C 7,2 C 68 % 1025,1 hPa 0,0 l/m 2 min 0 min 334 W/m 35,4 km/h (5 Bft) 100,00 %
07.02.2020 14:50 8,5 C 11,1 C 7,2 C 68 % 1025,1 hPa 0,0 l/m 2 min 0 min 330 W/m 25,7 km/h (4 Bft) 100,00 %
07.02.2020 14:52 8,5 C 10,6 C 7,2 C 68 % 1025,1 hPa 0,0 l/m 2 min 0 min 329 W/m 38,6 km/h (5 Bft) 100,00 %
07.02.2020 14:54 8,5 C 11,1 C 7,2 C 68 % 1025,0 hPa 0,0 l/m 2 min 0 min 325 W/m 35,4 km/h (5 Bft) 97,87 %
07.02.2020 14:56 8,6 C 11,1 C 7,2 C 68 % 1025,0 hPa 0,0 l/m 2 min 0 min 321 W/m 29,0 km/h (5 Bft) 97,87 %
07.02.2020 14:58 8,6 C 11,1 C 7,2 C 68 % 1024,9 hPa 0,0 l/m 2 min 0 min 319 W/m 25,7 km/h (4 Bft) 97,87 %
07.02.2020 15:00 8,6 C 10,6 C 7,2 C 68 % 1024,9 hPa 0,0 l/m 2 min 0 min 316 W/m 35,4 km/h (5 Bft) 97,87 %
07.02.2020 15:02 8,6 C 10,6 C 6,7 C 68 % 1024,8 hPa 0,0 l/m 2 min 0 min 311 W/m 29,0 km/h (5 Bft) 95,65 %
07.02.2020 15:04 8,6 C 10,6 C 6,7 C 67 % 1024,8 hPa 0,0 l/m 2 min 0 min 309 W/m 35,4 km/h (5 Bft) 97,87 %
07.02.2020 15:06 8,5 C 10,6 C 6,7 C 68 % 1024,8 hPa 0,0 l/m 2 min 0 min 305 W/m 35,4 km/h (5 Bft) 95,74 %
07.02.2020 15:08 8,6 C 10,6 C 7,2 C 68 % 1024,8 hPa 0,0 l/m 2 min 0 min 301 W/m 38,6 km/h (5 Bft) 97,87 %
07.02.2020 15:10 8,6 C 11,1 C 7,2 C 68 % 1024,8 hPa 0,0 l/m 2 min 0 min 297 W/m 22,5 km/h (4 Bft) 97,87 %
07.02.2020 15:12 8,6 C 11,1 C 7,2 C 68 % 1024,7 hPa 0,0 l/m 2 min 0 min 293 W/m 22,5 km/h (4 Bft) 97,87 %
07.02.2020 15:14 8,6 C 11,1 C 7,2 C 68 % 1024,7 hPa 0,0 l/m 2 min 0 min 289 W/m 29,0 km/h (5 Bft) 97,83 %
07.02.2020 15:16 8,6 C 11,1 C 7,2 C 68 % 1024,6 hPa 0,0 l/m 2 min 0 min 286 W/m 25,7 km/h (4 Bft) 95,74 %
07.02.2020 15:18 8,6 C 11,1 C 7,2 C 69 % 1024,6 hPa 0,0 l/m 2 min 0 min 282 W/m 19,3 km/h (3 Bft) 95,74 %
07.02.2020 15:20 8,6 C 11,1 C 6,7 C 69 % 1024,6 hPa 0,0 l/m 2 min 0 min 278 W/m 25,7 km/h (4 Bft) 95,74 %
07.02.2020 15:22 8,6 C 10,6 C 6,7 C 68 % 1024,6 hPa 0,0 l/m 2 min 0 min 274 W/m 29,0 km/h (5 Bft) 93,62 %
07.02.2020 15:24 8,6 C 10,6 C 6,7 C 68 % 1024,5 hPa 0,0 l/m 2 min 0 min 270 W/m 29,0 km/h (5 Bft) 95,74 %
07.02.2020 15:26 8,6 C 10,6 C 6,7 C 68 % 1024,5 hPa 0,0 l/m 2 min 0 min 266 W/m 25,7 km/h (4 Bft) 95,65 %
07.02.2020 15:28 8,6 C 10,6 C 6,7 C 68 % 1024,5 hPa 0,0 l/m 2 min 0 min 261 W/m 22,5 km/h (4 Bft) 93,62 %
07.02.2020 15:30 8,5 C 10,0 C 6,7 C 68 % 1024,4 hPa 0,0 l/m 2 min 0 min 256 W/m 32,2 km/h (5 Bft) 95,74 %
07.02.2020 15:32 8,5 C 10,6 C 6,7 C 68 % 1024,4 hPa 0,0 l/m 2 min 0 min 252 W/m 22,5 km/h (4 Bft) 95,74 %
07.02.2020 15:34 8,4 C 10,0 C 6,7 C 68 % 1024,4 hPa 0,0 l/m 2 min 0 min 247 W/m 25,7 km/h (4 Bft) 95,74 %
07.02.2020 15:36 8,4 C 9,4 C 6,7 C 68 % 1024,4 hPa 0,0 l/m 2 min 0 min 243 W/m 25,7 km/h (4 Bft) 95,74 %
07.02.2020 15:38 8,4 C 8,9 C 6,7 C 68 % 1024,4 hPa 0,0 l/m 2 min 0 min 238 W/m 25,7 km/h (4 Bft) 97,83 %
07.02.2020 15:40 8,3 C 8,9 C 6,7 C 68 % 1024,4 hPa 0,0 l/m 2 min 0 min 234 W/m 19,3 km/h (3 Bft) 93,62 %
07.02.2020 15:42 8,3 C 8,3 C 6,7 C 68 % 1024,4 hPa 0,0 l/m 2 min 0 min 228 W/m 32,2 km/h (5 Bft) 97,87 %
07.02.2020 15:44 8,3 C 7,8 C 6,7 C 68 % 1024,4 hPa 0,0 l/m 2 min 0 min 222 W/m 38,6 km/h (5 Bft) 95,74 %
07.02.2020 15:46 8,3 C 7,8 C 6,7 C 68 % 1024,4 hPa 0,0 l/m 2 min 0 min 218 W/m 45,1 km/h (6 Bft) 97,87 %
07.02.2020 15:48 8,3 C 7,8 C 6,7 C 68 % 1024,3 hPa 0,0 l/m 2 min 0 min 213 W/m 29,0 km/h (5 Bft) 97,87 %
07.02.2020 15:50 8,3 C 7,8 C 6,7 C 68 % 1024,4 hPa 0,0 l/m 2 min 0 min 207 W/m 22,5 km/h (4 Bft) 97,83 %
07.02.2020 15:52 8,3 C 7,8 C 6,7 C 68 % 1024,4 hPa 0,0 l/m 2 min 0 min 202 W/m 29,0 km/h (5 Bft) 97,87 %
07.02.2020 15:54 8,2 C 7,8 C 6,7 C 67 % 1024,4 hPa 0,0 l/m 2 min 0 min 197 W/m 35,4 km/h (5 Bft) 95,74 %
07.02.2020 15:56 8,2 C 7,8 C 6,7 C 67 % 1024,4 hPa 0,0 l/m 2 min 0 min 191 W/m 25,7 km/h (4 Bft) 95,74 %
07.02.2020 15:58 8,2 C 7,8 C 6,7 C 68 % 1024,4 hPa 0,0 l/m 2 min 0 min 186 W/m 25,7 km/h (4 Bft) 95,74 %
07.02.2020 16:00 8,2 C 7,2 C 6,7 C 68 % 1024,3 hPa 0,0 l/m 2 min 0 min 167 W/m 25,7 km/h (4 Bft) 97,83 %
07.02.2020 16:02 8,1 C 7,2 C 6,7 C 68 % 1024,3 hPa 0,0 l/m 2 min 0 min 134 W/m 25,7 km/h (4 Bft) 97,87 %
07.02.2020 16:04 8,1 C 7,2 C 6,7 C 68 % 1024,3 hPa 0,0 l/m 2 min 0 min 97 W/m 29,0 km/h (5 Bft) 97,87 %
07.02.2020 16:06 8,1 C 7,2 C 6,7 C 68 % 1024,4 hPa 0,0 l/m 0 min 0 min 64 W/m 19,3 km/h (3 Bft) 97,87 %
07.02.2020 16:08 8,1 C 7,2 C 6,7 C 68 % 1024,4 hPa 0,0 l/m 0 min 0 min 47 W/m 19,3 km/h (3 Bft) 93,62 %
07.02.2020 16:10 8,1 C 7,2 C 6,7 C 68 % 1024,4 hPa 0,0 l/m 0 min 0 min 39 W/m 19,3 km/h (3 Bft) 95,74 %
07.02.2020 16:12 8,1 C 7,2 C 6,7 C 68 % 1024,4 hPa 0,0 l/m 0 min 0 min 38 W/m 19,3 km/h (3 Bft) 97,83 %
07.02.2020 16:14 8,0 C 7,2 C 6,7 C 68 % 1024,3 hPa 0,0 l/m 0 min 0 min 37 W/m 22,5 km/h (4 Bft) 97,87 %
07.02.2020 16:16 8,0 C 7,2 C 6,7 C 68 % 1024,3 hPa 0,0 l/m 0 min 0 min 35 W/m 29,0 km/h (5 Bft) 97,87 %
07.02.2020 16:18 8,0 C 7,2 C 6,7 C 68 % 1024,3 hPa 0,0 l/m 0 min 0 min 35 W/m 25,7 km/h (4 Bft) 95,74 %
07.02.2020 16:20 8,0 C 7,2 C 6,7 C 68 % 1024,3 hPa 0,0 l/m 0 min 0 min 34 W/m 22,5 km/h (4 Bft) 97,87 %
07.02.2020 16:22 7,9 C 7,2 C 6,1 C 68 % 1024,3 hPa 0,0 l/m 0 min 0 min 33 W/m 22,5 km/h (4 Bft) 97,87 %
07.02.2020 16:24 7,9 C 7,2 C 6,1 C 68 % 1024,3 hPa 0,0 l/m 0 min 0 min 33 W/m 19,3 km/h (3 Bft) 100,00 %
07.02.2020 16:26 7,9 C 7,2 C 6,1 C 69 % 1024,3 hPa 0,0 l/m 0 min 0 min 32 W/m 19,3 km/h (3 Bft) 100,00 %
07.02.2020 16:28 7,9 C 7,2 C 6,1 C 69 % 1024,3 hPa 0,0 l/m 0 min 0 min 31 W/m 22,5 km/h (4 Bft) 100,00 %
07.02.2020 16:30 7,8 C 7,2 C 6,1 C 69 % 1024,3 hPa 0,0 l/m 0 min 0 min 30 W/m 22,5 km/h (4 Bft) 100,00 %
07.02.2020 16:32 7,8 C 7,2 C 6,1 C 69 % 1024,3 hPa 0,0 l/m 0 min 0 min 29 W/m 25,7 km/h (4 Bft) 100,00 %
07.02.2020 16:34 7,8 C 7,2 C 6,1 C 69 % 1024,3 hPa 0,0 l/m 0 min 0 min 28 W/m 19,3 km/h (3 Bft) 100,00 %
07.02.2020 16:36 7,8 C 7,2 C 6,1 C 69 % 1024,3 hPa 0,0 l/m 0 min 0 min 29 W/m 19,3 km/h (3 Bft) 100,00 %
07.02.2020 16:38 7,8 C 7,2 C 6,1 C 69 % 1024,3 hPa 0,0 l/m 0 min 0 min 29 W/m 19,3 km/h (3 Bft) 100,00 %
07.02.2020 16:40 7,8 C 7,2 C 6,1 C 68 % 1024,3 hPa 0,0 l/m 0 min 0 min 31 W/m 25,7 km/h (4 Bft) 100,00 %
07.02.2020 16:42 7,7 C 7,2 C 6,1 C 68 % 1024,2 hPa 0,0 l/m 0 min 0 min 27 W/m 35,4 km/h (5 Bft) 100,00 %
07.02.2020 16:44 7,7 C 6,7 C 6,1 C 68 % 1024,2 hPa 0,0 l/m 0 min 0 min 25 W/m 19,3 km/h (3 Bft) 97,87 %
07.02.2020 16:46 7,7 C 6,7 C 6,1 C 68 % 1024,2 hPa 0,0 l/m 0 min 0 min 25 W/m 16,1 km/h (3 Bft) 97,87 %
07.02.2020 16:48 7,7 C 6,7 C 5,6 C 68 % 1024,1 hPa 0,0 l/m 0 min 0 min 24 W/m 19,3 km/h (3 Bft) 100,00 %
07.02.2020 16:50 7,6 C 6,7 C 5,6 C 68 % 1024,1 hPa 0,0 l/m 0 min 0 min 23 W/m 22,5 km/h (4 Bft) 100,00 %
07.02.2020 16:52 7,6 C 6,7 C 5,6 C 68 % 1024,1 hPa 0,0 l/m 0 min 0 min 21 W/m 22,5 km/h (4 Bft) 100,00 %
07.02.2020 16:54 7,6 C 6,7 C 5,6 C 69 % 1024,1 hPa 0,0 l/m 0 min 0 min 21 W/m 16,1 km/h (3 Bft) 100,00 %
07.02.2020 16:56 7,5 C 6,7 C 5,6 C 69 % 1024,0 hPa 0,0 l/m 0 min 0 min 20 W/m 22,5 km/h (4 Bft) 100,00 %
07.02.2020 16:58 7,4 C 6,7 C 5,6 C 69 % 1024,0 hPa 0,0 l/m 0 min 0 min 19 W/m 22,5 km/h (4 Bft) 100,00 %
07.02.2020 17:00 7,4 C 6,7 C 5,6 C 69 % 1023,9 hPa 0,0 l/m 0 min 0 min 18 W/m 25,7 km/h (4 Bft) 100,00 %
07.02.2020 17:02 7,4 C 6,7 C 5,6 C 69 % 1024,0 hPa 0,0 l/m 0 min 0 min 18 W/m 22,5 km/h (4 Bft) 97,87 %
07.02.2020 17:04 7,4 C 6,7 C 5,6 C 69 % 1024,0 hPa 0,0 l/m 0 min 0 min 17 W/m 22,5 km/h (4 Bft) 100,00 %
07.02.2020 17:06 7,3 C 6,7 C 5,6 C 69 % 1023,9 hPa 0,0 l/m 0 min 0 min 16 W/m 35,4 km/h (5 Bft) 97,87 %
07.02.2020 17:08 7,3 C 6,7 C 5,6 C 69 % 1023,9 hPa 0,0 l/m 0 min 0 min 15 W/m 29,0 km/h (5 Bft) 100,00 %
07.02.2020 17:10 7,3 C 6,7 C 5,6 C 69 % 1023,8 hPa 0,0 l/m 0 min 0 min 14 W/m 25,7 km/h (4 Bft) 100,00 %
07.02.2020 17:12 7,2 C 6,1 C 5,6 C 69 % 1023,7 hPa 0,0 l/m 0 min 0 min 14 W/m 19,3 km/h (3 Bft) 100,00 %
07.02.2020 17:14 7,2 C 6,1 C 5,6 C 70 % 1023,7 hPa 0,0 l/m 0 min 0 min 12 W/m 19,3 km/h (3 Bft) 97,87 %
07.02.2020 17:16 7,2 C 6,1 C 5,6 C 70 % 1023,8 hPa 0,0 l/m 0 min 0 min 12 W/m 19,3 km/h (3 Bft) 100,00 %
07.02.2020 17:18 7,1 C 6,1 C 5,0 C 70 % 1023,8 hPa 0,0 l/m 0 min 0 min 11 W/m 19,3 km/h (3 Bft) 100,00 %
07.02.2020 17:20 7,1 C 6,1 C 5,0 C 70 % 1023,8 hPa 0,0 l/m 0 min 0 min 11 W/m 16,1 km/h (3 Bft) 97,87 %
07.02.2020 17:22 7,1 C 6,1 C 5,0 C 70 % 1023,8 hPa 0,0 l/m 0 min 0 min 10 W/m 22,5 km/h (4 Bft) 97,83 %
07.02.2020 17:24 7,1 C 6,1 C 5,0 C 70 % 1023,9 hPa 0,0 l/m 0 min 0 min 9 W/m 16,1 km/h (3 Bft) 95,74 %
07.02.2020 17:26 7,0 C 6,1 C 5,0 C 70 % 1023,9 hPa 0,0 l/m 0 min 0 min 7 W/m 19,3 km/h (3 Bft) 100,00 %
07.02.2020 17:28 7,0 C 6,1 C 5,0 C 71 % 1023,9 hPa 0,0 l/m 0 min 0 min 6 W/m 25,7 km/h (4 Bft) 97,87 %
07.02.2020 17:30 6,9 C 6,1 C 5,0 C 71 % 1023,8 hPa 0,0 l/m 0 min 0 min 5 W/m 25,7 km/h (4 Bft) 100,00 %
07.02.2020 17:32 6,9 C 6,1 C 5,0 C 71 % 1023,7 hPa 0,0 l/m 0 min 0 min 5 W/m 29,0 km/h (5 Bft) 100,00 %
07.02.2020 17:34 6,9 C 6,1 C 5,0 C 71 % 1023,7 hPa 0,0 l/m 0 min 0 min 0 W/m 19,3 km/h (3 Bft) 97,83 %
07.02.2020 17:36 6,8 C 6,1 C 5,0 C 71 % 1023,7 hPa 0,0 l/m 0 min 0 min 0 W/m 25,7 km/h (4 Bft) 97,87 %
07.02.2020 17:38 6,8 C 6,1 C 5,0 C 71 % 1023,7 hPa 0,0 l/m 0 min 0 min 0 W/m 16,1 km/h (3 Bft) 97,87 %
07.02.2020 17:40 6,8 C 6,1 C 5,0 C 71 % 1023,8 hPa 0,0 l/m 0 min 0 min 0 W/m 19,3 km/h (3 Bft) 95,74 %
07.02.2020 17:42 6,8 C 5,6 C 5,0 C 71 % 1023,7 hPa 0,0 l/m 0 min 0 min 0 W/m 16,1 km/h (3 Bft) 97,87 %
07.02.2020 17:44 6,8 C 5,6 C 5,0 C 71 % 1023,6 hPa 0,0 l/m 0 min 0 min 0 W/m 16,1 km/h (3 Bft) 97,87 %
07.02.2020 17:46 6,7 C 5,6 C 5,0 C 71 % 1023,7 hPa 0,0 l/m 0 min 0 min 0 W/m 22,5 km/h (4 Bft) 97,83 %
07.02.2020 17:48 6,7 C 6,1 C 5,0 C 71 % 1023,7 hPa 0,0 l/m 0 min 0 min 0 W/m 25,7 km/h (4 Bft) 97,87 %
07.02.2020 17:50 6,7 C 6,1 C 5,0 C 71 % 1023,6 hPa 0,0 l/m 0 min 0 min 0 W/m 25,7 km/h (4 Bft) 95,74 %
07.02.2020 17:52 6,7 C 6,1 C 5,0 C 71 % 1023,7 hPa 0,0 l/m 0 min 0 min 0 W/m 29,0 km/h (5 Bft) 93,62 %
07.02.2020 17:54 6,7 C 5,6 C 5,0 C 71 % 1023,6 hPa 0,0 l/m 0 min 0 min 0 W/m 19,3 km/h (3 Bft) 95,74 %
07.02.2020 17:56 6,7 C 5,6 C 5,0 C 71 % 1023,7 hPa 0,0 l/m 0 min 0 min 0 W/m 19,3 km/h (3 Bft) 95,74 %
07.02.2020 17:58 6,6 C 5,6 C 5,0 C 72 % 1023,7 hPa 0,0 l/m 0 min 0 min 0 W/m 16,1 km/h (3 Bft) 91,30 %
07.02.2020 18:00 6,6 C 5,6 C 4,4 C 72 % 1023,7 hPa 0,0 l/m 0 min 0 min 0 W/m 22,5 km/h (4 Bft) 93,62 %
07.02.2020 18:02 6,6 C 5,6 C 4,4 C 72 % 1023,7 hPa 0,0 l/m 0 min 0 min 0 W/m 12,9 km/h (3 Bft) 91,49 %
07.02.2020 18:04 6,5 C 5,6 C 4,4 C 72 % 1023,7 hPa 0,0 l/m 0 min 0 min 0 W/m 19,3 km/h (3 Bft) 93,62 %
07.02.2020 18:06 6,5 C 5,6 C 4,4 C 72 % 1023,7 hPa 0,0 l/m 0 min 0 min 0 W/m 19,3 km/h (3 Bft) 91,49 %
07.02.2020 18:08 6,5 C 5,6 C 4,4 C 72 % 1023,7 hPa 0,0 l/m 0 min 0 min 0 W/m 25,7 km/h (4 Bft) 91,30 %
07.02.2020 18:10 6,4 C 5,6 C 4,4 C 73 % 1023,7 hPa 0,0 l/m 0 min 0 min 0 W/m 19,3 km/h (3 Bft) 93,62 %
07.02.2020 18:12 6,4 C 5,6 C 4,4 C 73 % 1023,7 hPa 0,0 l/m 0 min 0 min 0 W/m 22,5 km/h (4 Bft) 95,74 %
07.02.2020 18:14 6,4 C 5,6 C 4,4 C 73 % 1023,7 hPa 0,0 l/m 0 min 0 min 0 W/m 19,3 km/h (3 Bft) 95,74 %
07.02.2020 18:16 6,3 C 5,6 C 4,4 C 73 % 1023,8 hPa 0,0 l/m 0 min 0 min 0 W/m 19,3 km/h (3 Bft) 91,49 %
07.02.2020 18:18 6,3 C 5,6 C 4,4 C 73 % 1023,7 hPa 0,0 l/m 0 min 0 min 0 W/m 19,3 km/h (3 Bft) 93,62 %
07.02.2020 18:20 6,3 C 5,6 C 4,4 C 73 % 1023,7 hPa 0,0 l/m 0 min 0 min 0 W/m 22,5 km/h (4 Bft) 95,65 %
07.02.2020 18:22 6,3 C 5,6 C 4,4 C 73 % 1023,7 hPa 0,0 l/m 0 min 0 min 0 W/m 22,5 km/h (4 Bft) 95,74 %
07.02.2020 18:24 6,2 C 5,6 C 4,4 C 73 % 1023,7 hPa 0,0 l/m 0 min 0 min 0 W/m 25,7 km/h (4 Bft) 95,74 %
07.02.2020 18:26 6,2 C 5,0 C 4,4 C 73 % 1023,7 hPa 0,0 l/m 0 min 0 min 0 W/m 16,1 km/h (3 Bft) 95,74 %
07.02.2020 18:28 6,2 C 5,0 C 4,4 C 74 % 1023,7 hPa 0,0 l/m 0 min 0 min 0 W/m 16,1 km/h (3 Bft) 95,74 %
07.02.2020 18:30 6,2 C 5,0 C 4,4 C 74 % 1023,8 hPa 0,0 l/m 0 min 0 min 0 W/m 22,5 km/h (4 Bft) 95,74 %
07.02.2020 18:32 6,1 C 5,0 C 4,4 C 74 % 1023,7 hPa 0,0 l/m 0 min 0 min 0 W/m 22,5 km/h (4 Bft) 97,83 %
07.02.2020 18:34 6,1 C 5,0 C 4,4 C 74 % 1023,8 hPa 0,0 l/m 0 min 0 min 0 W/m 19,3 km/h (3 Bft) 95,74 %
07.02.2020 18:36 6,1 C 5,0 C 4,4 C 74 % 1023,8 hPa 0,0 l/m 0 min 0 min 0 W/m 19,3 km/h (3 Bft) 95,74 %
07.02.2020 18:38 6,1 C 5,0 C 4,4 C 74 % 1023,7 hPa 0,0 l/m 0 min 0 min 0 W/m 22,5 km/h (4 Bft) 93,62 %
07.02.2020 18:40 6,1 C 5,0 C 4,4 C 74 % 1023,7 hPa 0,0 l/m 0 min 0 min 0 W/m 25,7 km/h (4 Bft) 95,74 %
07.02.2020 18:42 6,1 C 5,0 C 4,4 C 74 % 1023,7 hPa 0,0 l/m 0 min 0 min 0 W/m 22,5 km/h (4 Bft) 95,74 %
07.02.2020 18:44 6,0 C 5,0 C 4,4 C 74 % 1023,7 hPa 0,0 l/m 0 min 0 min 0 W/m 16,1 km/h (3 Bft) 95,65 %
07.02.2020 18:46 6,0 C 5,0 C 4,4 C 74 % 1023,7 hPa 0,0 l/m 0 min 0 min 0 W/m 22,5 km/h (4 Bft) 95,74 %
07.02.2020 18:48 6,0 C 5,0 C 4,4 C 74 % 1023,7 hPa 0,0 l/m 0 min 0 min 0 W/m 22,5 km/h (4 Bft) 95,74 %
07.02.2020 18:50 5,9 C 5,0 C 4,4 C 74 % 1023,7 hPa 0,0 l/m 0 min 0 min 0 W/m 22,5 km/h (4 Bft) 95,74 %
07.02.2020 18:52 5,9 C 5,0 C 4,4 C 75 % 1023,7 hPa 0,0 l/m 0 min 0 min 0 W/m 25,7 km/h (4 Bft) 95,12 %
07.02.2020 18:54 5,9 C 5,0 C 4,4 C 75 % 1023,7 hPa 0,0 l/m 0 min 0 min 0 W/m 22,5 km/h (4 Bft) 96,00 %
07.02.2020 18:56 5,9 C 5,0 C 4,4 C 75 % 1023,7 hPa 0,0 l/m 0 min 0 min 0 W/m 19,3 km/h (3 Bft) 97,87 %
07.02.2020 18:58 5,9 C 5,0 C 4,4 C 75 % 1023,7 hPa 0,0 l/m 0 min 0 min 0 W/m 19,3 km/h (3 Bft) 97,96 %
07.02.2020 19:00 5,8 C 5,0 C 3,9 C 75 % 1023,7 hPa 0,0 l/m 0 min 0 min 0 W/m 16,1 km/h (3 Bft) 100,00 %
07.02.2020 19:02 5,8 C 5,0 C 3,9 C 75 % 1023,6 hPa 0,0 l/m 0 min 0 min 0 W/m 19,3 km/h (3 Bft) 100,00 %
07.02.2020 19:04 5,8 C 5,0 C 3,9 C 75 % 1023,5 hPa 0,0 l/m 0 min 0 min 0 W/m 25,7 km/h (4 Bft) 97,87 %
07.02.2020 19:06 5,8 C 5,0 C 3,9 C 75 % 1023,5 hPa 0,0 l/m 0 min 0 min 0 W/m 22,5 km/h (4 Bft) 100,00 %
07.02.2020 19:08 5,7 C 5,0 C 3,9 C 75 % 1023,5 hPa 0,0 l/m 0 min 0 min 0 W/m 19,3 km/h (3 Bft) 97,87 %
07.02.2020 19:10 5,7 C 5,0 C 3,9 C 76 % 1023,5 hPa 0,0 l/m 0 min 0 min 0 W/m 22,5 km/h (4 Bft) 100,00 %
07.02.2020 19:12 5,7 C 5,0 C 3,9 C 76 % 1023,5 hPa 0,0 l/m 0 min 0 min 0 W/m 19,3 km/h (3 Bft) 100,00 %
07.02.2020 19:14 5,7 C 5,0 C 3,9 C 76 % 1023,5 hPa 0,0 l/m 0 min 0 min 0 W/m 25,7 km/h (4 Bft) 97,87 %
07.02.2020 19:16 5,6 C 5,0 C 3,9 C 76 % 1023,5 hPa 0,0 l/m 0 min 0 min 0 W/m 38,6 km/h (5 Bft) 97,87 %
07.02.2020 19:18 5,6 C 5,0 C 3,9 C 76 % 1023,5 hPa 0,0 l/m 0 min 0 min 0 W/m 29,0 km/h (5 Bft) 100,00 %
07.02.2020 19:20 5,6 C 5,0 C 3,9 C 76 % 1023,5 hPa 0,0 l/m 0 min 0 min 0 W/m 38,6 km/h (5 Bft) 100,00 %
07.02.2020 19:22 5,6 C 5,0 C 3,9 C 76 % 1023,4 hPa 0,0 l/m 0 min 0 min 0 W/m 35,4 km/h (5 Bft) 97,87 %
07.02.2020 19:24 5,6 C 5,0 C 3,9 C 76 % 1023,5 hPa 0,0 l/m 0 min 0 min 0 W/m 19,3 km/h (3 Bft) 100,00 %
07.02.2020 19:26 5,6 C 5,0 C 3,9 C 76 % 1023,5 hPa 0,0 l/m 0 min 0 min 0 W/m 19,3 km/h (3 Bft) 97,87 %
07.02.2020 19:28 5,6 C 5,0 C 3,9 C 76 % 1023,5 hPa 0,0 l/m 0 min 0 min 0 W/m 16,1 km/h (3 Bft) 100,00 %
07.02.2020 19:30 5,6 C 4,4 C 3,9 C 76 % 1023,5 hPa 0,0 l/m 0 min 0 min 0 W/m 19,3 km/h (3 Bft) 100,00 %
07.02.2020 19:32 5,6 C 4,4 C 3,9 C 76 % 1023,5 hPa 0,0 l/m 0 min 0 min 0 W/m 22,5 km/h (4 Bft) 100,00 %
07.02.2020 19:34 5,6 C 4,4 C 3,9 C 76 % 1023,5 hPa 0,0 l/m 0 min 0 min 0 W/m 22,5 km/h (4 Bft) 100,00 %
07.02.2020 19:36 5,5 C 4,4 C 3,9 C 76 % 1023,5 hPa 0,0 l/m 0 min 0 min 0 W/m 25,7 km/h (4 Bft) 100,00 %
07.02.2020 19:38 5,5 C 4,4 C 3,9 C 76 % 1023,5 hPa 0,0 l/m 0 min 0 min 0 W/m 19,3 km/h (3 Bft) 100,00 %
07.02.2020 19:40 5,5 C 4,4 C 3,9 C 76 % 1023,5 hPa 0,0 l/m 0 min 0 min 0 W/m 16,1 km/h (3 Bft) 100,00 %
07.02.2020 19:42 5,4 C 4,4 C 3,9 C 76 % 1023,4 hPa 0,0 l/m 0 min 0 min 0 W/m 16,1 km/h (3 Bft) 95,65 %
07.02.2020 19:44 5,4 C 4,4 C 3,9 C 76 % 1023,5 hPa 0,0 l/m 0 min 0 min 0 W/m 38,6 km/h (5 Bft) 100,00 %
07.02.2020 19:46 5,4 C 4,4 C 3,9 C 76 % 1023,5 hPa 0,0 l/m 0 min 0 min 0 W/m 25,7 km/h (4 Bft) 100,00 %
07.02.2020 19:48 5,4 C 4,4 C 3,9 C 76 % 1023,4 hPa 0,0 l/m 0 min 0 min 0 W/m 35,4 km/h (5 Bft) 100,00 %
07.02.2020 19:50 5,3 C 4,4 C 3,9 C 76 % 1023,4 hPa 0,0 l/m 0 min 0 min 0 W/m 22,5 km/h (4 Bft) 100,00 %
07.02.2020 19:52 5,3 C 4,4 C 3,9 C 76 % 1023,4 hPa 0,0 l/m 0 min 0 min 0 W/m 41,8 km/h (6 Bft) 97,87 %
07.02.2020 19:54 5,3 C 4,4 C 3,9 C 76 % 1023,4 hPa 0,0 l/m 0 min 0 min 0 W/m 29,0 km/h (5 Bft) 100,00 %
07.02.2020 19:56 5,3 C 4,4 C 3,9 C 76 % 1023,3 hPa 0,0 l/m 0 min 0 min 0 W/m 22,5 km/h (4 Bft) 97,87 %
07.02.2020 19:58 5,3 C 4,4 C 3,9 C 76 % 1023,3 hPa 0,0 l/m 0 min 0 min 0 W/m 25,7 km/h (4 Bft) 95,74 %
07.02.2020 20:00 5,3 C 4,4 C 3,9 C 76 % 1023,3 hPa 0,0 l/m 0 min 0 min 0 W/m 22,5 km/h (4 Bft) 97,87 %
07.02.2020 20:02 5,3 C 4,4 C 3,9 C 76 % 1023,3 hPa 0,0 l/m 0 min 0 min 0 W/m 29,0 km/h (5 Bft) 97,87 %
07.02.2020 20:04 5,3 C 4,4 C 3,9 C 76 % 1023,3 hPa 0,0 l/m 0 min 0 min 0 W/m 25,7 km/h (4 Bft) 97,87 %
07.02.2020 20:06 5,3 C 4,4 C 3,9 C 76 % 1023,3 hPa 0,0 l/m 0 min 0 min 0 W/m 32,2 km/h (5 Bft) 95,65 %
07.02.2020 20:08 5,2 C 4,4 C 3,9 C 76 % 1023,3 hPa 0,0 l/m 0 min 0 min 0 W/m 38,6 km/h (5 Bft) 95,74 %
07.02.2020 20:10 5,2 C 4,4 C 3,9 C 76 % 1023,3 hPa 0,0 l/m 0 min 0 min 0 W/m 29,0 km/h (5 Bft) 97,87 %
07.02.2020 20:12 5,2 C 4,4 C 3,9 C 76 % 1023,3 hPa 0,0 l/m 0 min 0 min 0 W/m 25,7 km/h (4 Bft) 97,87 %
07.02.2020 20:14 5,2 C 4,4 C 3,3 C 76 % 1023,4 hPa 0,0 l/m 0 min 0 min 0 W/m 22,5 km/h (4 Bft) 95,74 %
07.02.2020 20:16 5,2 C 4,4 C 3,3 C 76 % 1023,3 hPa 0,0 l/m 0 min 0 min 0 W/m 22,5 km/h (4 Bft) 97,83 %
07.02.2020 20:18 5,2 C 4,4 C 3,3 C 76 % 1023,3 hPa 0,0 l/m 0 min 0 min 0 W/m 29,0 km/h (5 Bft) 97,87 %
07.02.2020 20:20 5,1 C 4,4 C 3,3 C 77 % 1023,3 hPa 0,0 l/m 0 min 0 min 0 W/m 29,0 km/h (5 Bft) 97,87 %
07.02.2020 20:22 5,1 C 4,4 C 3,3 C 77 % 1023,4 hPa 0,0 l/m 0 min 0 min 0 W/m 35,4 km/h (5 Bft) 97,87 %
07.02.2020 20:24 5,1 C 4,4 C 3,3 C 77 % 1023,3 hPa 0,0 l/m 0 min 0 min 0 W/m 29,0 km/h (5 Bft) 97,87 %
07.02.2020 20:26 5,1 C 4,4 C 3,3 C 77 % 1023,3 hPa 0,0 l/m 0 min 0 min 0 W/m 25,7 km/h (4 Bft) 95,74 %
07.02.2020 20:28 5,1 C 4,4 C 3,3 C 77 % 1023,3 hPa 0,0 l/m 0 min 0 min 0 W/m 22,5 km/h (4 Bft) 95,65 %
07.02.2020 20:30 5,1 C 3,9 C 3,3 C 77 % 1023,2 hPa 0,0 l/m 0 min 0 min 0 W/m 22,5 km/h (4 Bft) 97,87 %
07.02.2020 20:32 5,1 C 3,9 C 3,3 C 77 % 1023,2 hPa 0,0 l/m 0 min 0 min 0 W/m 25,7 km/h (4 Bft) 97,87 %
07.02.2020 20:34 5,0 C 3,9 C 3,3 C 77 % 1023,1 hPa 0,0 l/m 0 min 0 min 0 W/m 29,0 km/h (5 Bft) 97,87 %
07.02.2020 20:36 5,0 C 3,9 C 3,3 C 77 % 1023,2 hPa 0,0 l/m 0 min 0 min 0 W/m 19,3 km/h (3 Bft) 100,00 %
07.02.2020 20:38 4,9 C 3,9 C 3,3 C 77 % 1023,1 hPa 0,0 l/m 0 min 0 min 0 W/m 29,0 km/h (5 Bft) 100,00 %
07.02.2020 20:40 4,9 C 3,9 C 3,3 C 77 % 1023,2 hPa 0,0 l/m 0 min 0 min 0 W/m 29,0 km/h (5 Bft) 100,00 %
07.02.2020 20:42 4,9 C 3,9 C 3,3 C 77 % 1023,2 hPa 0,0 l/m 0 min 0 min 0 W/m 29,0 km/h (5 Bft) 97,87 %
07.02.2020 20:44 4,9 C 3,9 C 3,3 C 77 % 1023,2 hPa 0,0 l/m 0 min 0 min 0 W/m 35,4 km/h (5 Bft) 100,00 %
07.02.2020 20:46 4,9 C 3,9 C 3,3 C 78 % 1023,2 hPa 0,0 l/m 0 min 0 min 0 W/m 29,0 km/h (5 Bft) 100,00 %
07.02.2020 20:48 4,9 C 3,9 C 3,3 C 78 % 1023,1 hPa 0,0 l/m 0 min 0 min 0 W/m 29,0 km/h (5 Bft) 100,00 %
07.02.2020 20:50 4,8 C 3,9 C 3,3 C 78 % 1023,2 hPa 0,0 l/m 0 min 0 min 0 W/m 25,7 km/h (4 Bft) 100,00 %
07.02.2020 20:52 4,8 C 3,9 C 3,3 C 78 % 1023,3 hPa 0,0 l/m 0 min 0 min 0 W/m 35,4 km/h (5 Bft) 100,00 %
07.02.2020 20:54 4,8 C 3,9 C 3,3 C 78 % 1023,3 hPa 0,0 l/m 0 min 0 min 0 W/m 35,4 km/h (5 Bft) 100,00 %
07.02.2020 20:56 4,8 C 3,9 C 3,3 C 78 % 1023,3 hPa 0,0 l/m 0 min 0 min 0 W/m 35,4 km/h (5 Bft) 100,00 %
07.02.2020 20:58 4,8 C 3,9 C 3,3 C 78 % 1023,3 hPa 0,0 l/m 0 min 0 min 0 W/m 29,0 km/h (5 Bft) 97,87 %
07.02.2020 21:00 4,8 C 3,9 C 3,3 C 78 % 1023,3 hPa 0,0 l/m 0 min 0 min 0 W/m 35,4 km/h (5 Bft) 97,87 %
07.02.2020 21:02 4,7 C 3,9 C 3,3 C 78 % 1023,4 hPa 0,0 l/m 0 min 0 min 0 W/m 25,7 km/h (4 Bft) 93,62 %
07.02.2020 21:04 4,7 C 3,9 C 3,3 C 78 % 1023,3 hPa 0,0 l/m 0 min 0 min 0 W/m 32,2 km/h (5 Bft) 97,83 %
07.02.2020 21:06 4,7 C 3,9 C 3,3 C 78 % 1023,3 hPa 0,0 l/m 0 min 0 min 0 W/m 25,7 km/h (4 Bft) 97,87 %
07.02.2020 21:08 4,7 C 3,9 C 3,3 C 78 % 1023,2 hPa 0,0 l/m 0 min 0 min 0 W/m 29,0 km/h (5 Bft) 97,87 %
07.02.2020 21:10 4,7 C 3,9 C 2,8 C 78 % 1023,2 hPa 0,0 l/m 0 min 0 min 0 W/m 19,3 km/h (3 Bft) 95,74 %
07.02.2020 21:12 4,6 C 3,9 C 2,8 C 78 % 1023,1 hPa 0,0 l/m 0 min 0 min 0 W/m 22,5 km/h (4 Bft) 97,87 %
07.02.2020 21:14 4,6 C 3,9 C 2,8 C 78 % 1023,2 hPa 0,0 l/m 0 min 0 min 0 W/m 29,0 km/h (5 Bft) 95,74 %
07.02.2020 21:16 4,6 C 3,9 C 2,8 C 78 % 1023,2 hPa 0,0 l/m 0 min 0 min 0 W/m 29,0 km/h (5 Bft) 97,83 %
07.02.2020 21:18 4,6 C 3,9 C 2,8 C 79 % 1023,3 hPa 0,0 l/m 0 min 0 min 0 W/m 38,6 km/h (5 Bft) 97,87 %
07.02.2020 21:20 4,5 C 3,9 C 2,8 C 79 % 1023,2 hPa 0,0 l/m 0 min 0 min 0 W/m 22,5 km/h (4 Bft) 97,87 %
07.02.2020 21:22 4,5 C 3,3 C 2,8 C 79 % 1023,2 hPa 0,0 l/m 0 min 0 min 0 W/m 25,7 km/h (4 Bft) 97,87 %
07.02.2020 21:24 4,4 C 3,3 C 2,8 C 79 % 1023,1 hPa 0,0 l/m 0 min 0 min 0 W/m 22,5 km/h (4 Bft) 97,87 %
07.02.2020 21:26 4,4 C 3,3 C 2,8 C 79 % 1023,1 hPa 0,0 l/m 0 min 0 min 0 W/m 32,2 km/h (5 Bft) 95,74 %
07.02.2020 21:28 4,4 C 3,3 C 2,8 C 79 % 1023,1 hPa 0,0 l/m 0 min 0 min 0 W/m 35,4 km/h (5 Bft) 97,83 %
07.02.2020 21:30 4,3 C 3,3 C 2,8 C 79 % 1023,1 hPa 0,0 l/m 0 min 0 min 0 W/m 25,7 km/h (4 Bft) 95,74 %
07.02.2020 21:32 4,3 C 3,3 C 2,8 C 79 % 1023,2 hPa 0,0 l/m 0 min 0 min 0 W/m 25,7 km/h (4 Bft) 97,87 %
07.02.2020 21:34 4,3 C 3,3 C 2,8 C 79 % 1023,1 hPa 0,0 l/m 0 min 0 min 0 W/m 22,5 km/h (4 Bft) 97,87 %
07.02.2020 21:36 4,3 C 3,3 C 2,8 C 79 % 1023,1 hPa 0,0 l/m 0 min 0 min 0 W/m 25,7 km/h (4 Bft) 97,87 %
07.02.2020 21:38 4,2 C 3,3 C 2,8 C 79 % 1023,1 hPa 0,0 l/m 0 min 0 min 0 W/m 22,5 km/h (4 Bft) 97,83 %
07.02.2020 21:40 4,2 C 3,3 C 2,8 C 79 % 1023,1 hPa 0,0 l/m 0 min 0 min 0 W/m 19,3 km/h (3 Bft) 97,87 %
07.02.2020 21:42 4,2 C 3,3 C 2,8 C 79 % 1023,1 hPa 0,0 l/m 0 min 0 min 0 W/m 29,0 km/h (5 Bft) 97,87 %
07.02.2020 21:44 4,2 C 3,3 C 2,8 C 80 % 1023,1 hPa 0,0 l/m 0 min 0 min 0 W/m 22,5 km/h (4 Bft) 95,74 %
07.02.2020 21:46 4,2 C 3,3 C 2,8 C 80 % 1023,0 hPa 0,0 l/m 0 min 0 min 0 W/m 22,5 km/h (4 Bft) 100,00 %
07.02.2020 21:48 4,1 C 3,3 C 2,8 C 80 % 1022,9 hPa 0,0 l/m 0 min 0 min 0 W/m 41,8 km/h (6 Bft) 97,87 %
07.02.2020 21:50 4,1 C 3,3 C 2,8 C 80 % 1022,9 hPa 0,0 l/m 0 min 0 min 0 W/m 22,5 km/h (4 Bft) 100,00 %
07.02.2020 21:52 4,1 C 3,3 C 2,2 C 80 % 1023,0 hPa 0,0 l/m 0 min 0 min 0 W/m 19,3 km/h (3 Bft) 95,74 %
07.02.2020 21:54 4,1 C 3,3 C 2,8 C 80 % 1023,0 hPa 0,0 l/m 0 min 0 min 0 W/m 22,5 km/h (4 Bft) 97,87 %
07.02.2020 21:56 4,1 C 3,3 C 2,8 C 80 % 1023,0 hPa 0,0 l/m 0 min 0 min 0 W/m 25,7 km/h (4 Bft) 97,87 %
07.02.2020 21:58 4,0 C 3,3 C 2,2 C 80 % 1023,0 hPa 0,0 l/m 0 min 0 min 0 W/m 29,0 km/h (5 Bft) 95,74 %
07.02.2020 22:00 4,0 C 3,3 C 2,2 C 80 % 1022,9 hPa 0,0 l/m 0 min 0 min 0 W/m 25,7 km/h (4 Bft) 95,74 %
07.02.2020 22:02 4,0 C 3,3 C 2,2 C 80 % 1022,9 hPa 0,0 l/m 0 min 0 min 0 W/m 25,7 km/h (4 Bft) 97,83 %
07.02.2020 22:04 3,9 C 3,3 C 2,2 C 80 % 1022,9 hPa 0,0 l/m 0 min 0 min 0 W/m 19,3 km/h (3 Bft) 97,87 %
07.02.2020 22:06 3,9 C 3,3 C 2,2 C 80 % 1022,9 hPa 0,0 l/m 0 min 0 min 0 W/m 38,6 km/h (5 Bft) 97,87 %
07.02.2020 22:08 3,9 C 3,3 C 2,2 C 80 % 1023,0 hPa 0,0 l/m 0 min 0 min 0 W/m 22,5 km/h (4 Bft) 97,87 %
07.02.2020 22:10 3,9 C 3,3 C 2,2 C 80 % 1022,9 hPa 0,0 l/m 0 min 0 min 0 W/m 29,0 km/h (5 Bft) 95,74 %
07.02.2020 22:12 3,9 C 2,8 C 2,2 C 81 % 1022,9 hPa 0,0 l/m 0 min 0 min 0 W/m 25,7 km/h (4 Bft) 97,87 %
07.02.2020 22:14 3,8 C 2,8 C 2,2 C 81 % 1022,9 hPa 0,0 l/m 0 min 0 min 0 W/m 22,5 km/h (4 Bft) 97,83 %
07.02.2020 22:16 3,8 C 2,8 C 2,2 C 81 % 1022,8 hPa 0,0 l/m 0 min 0 min 0 W/m 25,7 km/h (4 Bft) 97,87 %
07.02.2020 22:18 3,8 C 2,8 C 2,2 C 81 % 1022,8 hPa 0,0 l/m 0 min 0 min 0 W/m 25,7 km/h (4 Bft) 97,87 %
07.02.2020 22:20 3,8 C 2,8 C 2,2 C 81 % 1022,8 hPa 0,0 l/m 0 min 0 min 0 W/m 25,7 km/h (4 Bft) 95,74 %
07.02.2020 22:22 3,8 C 2,8 C 2,2 C 81 % 1022,8 hPa 0,0 l/m 0 min 0 min 0 W/m 22,5 km/h (4 Bft) 95,74 %
07.02.2020 22:24 3,7 C 2,8 C 2,2 C 81 % 1023,0 hPa 0,0 l/m 0 min 0 min 0 W/m 35,4 km/h (5 Bft) 95,74 %
07.02.2020 22:26 3,7 C 2,8 C 2,2 C 81 % 1023,0 hPa 0,0 l/m 0 min 0 min 0 W/m 22,5 km/h (4 Bft) 93,48 %
07.02.2020 22:28 3,7 C 2,8 C 2,2 C 81 % 1022,9 hPa 0,0 l/m 0 min 0 min 0 W/m 22,5 km/h (4 Bft) 95,74 %
07.02.2020 22:30 3,7 C 2,8 C 2,2 C 81 % 1022,9 hPa 0,0 l/m 0 min 0 min 0 W/m 22,5 km/h (4 Bft) 95,74 %
07.02.2020 22:32 3,7 C 2,8 C 2,2 C 81 % 1022,9 hPa 0,0 l/m 0 min 0 min 0 W/m 29,0 km/h (5 Bft) 95,74 %
07.02.2020 22:34 3,6 C 2,8 C 2,2 C 81 % 1023,0 hPa 0,0 l/m 0 min 0 min 0 W/m 25,7 km/h (4 Bft) 95,74 %
07.02.2020 22:36 3,6 C 2,8 C 2,2 C 81 % 1023,0 hPa 0,0 l/m 0 min 0 min 0 W/m 29,0 km/h (5 Bft) 95,65 %
07.02.2020 22:38 3,6 C 2,8 C 2,2 C 81 % 1023,0 hPa 0,0 l/m 0 min 0 min 0 W/m 19,3 km/h (3 Bft) 95,74 %
07.02.2020 22:40 3,6 C 2,8 C 2,2 C 81 % 1023,0 hPa 0,0 l/m 0 min 0 min 0 W/m 29,0 km/h (5 Bft) 95,74 %
07.02.2020 22:42 3,6 C 2,8 C 2,2 C 81 % 1023,0 hPa 0,0 l/m 0 min 0 min 0 W/m 32,2 km/h (5 Bft) 95,74 %
07.02.2020 22:44 3,6 C 2,8 C 2,2 C 81 % 1023,0 hPa 0,0 l/m 0 min 0 min 0 W/m 22,5 km/h (4 Bft) 95,74 %
07.02.2020 22:46 3,6 C 2,8 C 2,2 C 82 % 1023,1 hPa 0,0 l/m 0 min 0 min 0 W/m 29,0 km/h (5 Bft) 95,74 %
07.02.2020 22:48 3,6 C 2,8 C 2,2 C 82 % 1023,2 hPa 0,0 l/m 0 min 0 min 0 W/m 29,0 km/h (5 Bft) 95,65 %
07.02.2020 22:50 3,6 C 2,8 C 2,2 C 81 % 1023,2 hPa 0,0 l/m 0 min 0 min 0 W/m 35,4 km/h (5 Bft) 95,74 %
07.02.2020 22:52 3,5 C 2,8 C 2,2 C 81 % 1023,2 hPa 0,0 l/m 0 min 0 min 0 W/m 22,5 km/h (4 Bft) 93,62 %
07.02.2020 22:54 3,5 C 2,8 C 2,2 C 81 % 1023,3 hPa 0,0 l/m 0 min 0 min 0 W/m 22,5 km/h (4 Bft) 93,62 %
07.02.2020 22:56 3,5 C 2,8 C 2,2 C 82 % 1023,2 hPa 0,0 l/m 0 min 0 min 0 W/m 35,4 km/h (5 Bft) 95,74 %
07.02.2020 22:58 3,4 C 2,8 C 2,2 C 82 % 1023,3 hPa 0,0 l/m 0 min 0 min 0 W/m 22,5 km/h (4 Bft) 97,87 %
07.02.2020 23:00 3,4 C 2,8 C 1,7 C 82 % 1023,2 hPa 0,0 l/m 0 min 0 min 0 W/m 22,5 km/h (4 Bft) 95,65 %
07.02.2020 23:02 3,4 C 2,8 C 1,7 C 82 % 1023,2 hPa 0,0 l/m 0 min 0 min 0 W/m 25,7 km/h (4 Bft) 97,87 %
07.02.2020 23:04 3,4 C 2,8 C 1,7 C 82 % 1023,3 hPa 0,0 l/m 0 min 0 min 0 W/m 19,3 km/h (3 Bft) 100,00 %
07.02.2020 23:06 3,4 C 2,2 C 1,7 C 82 % 1023,2 hPa 0,0 l/m 0 min 0 min 0 W/m 25,7 km/h (4 Bft) 100,00 %
07.02.2020 23:08 3,3 C 2,2 C 1,7 C 82 % 1023,2 hPa 0,0 l/m 0 min 0 min 0 W/m 22,5 km/h (4 Bft) 97,87 %
07.02.2020 23:10 3,3 C 2,2 C 1,7 C 82 % 1023,1 hPa 0,0 l/m 0 min 0 min 0 W/m 29,0 km/h (5 Bft) 100,00 %
07.02.2020 23:12 3,3 C 2,2 C 1,7 C 82 % 1023,1 hPa 0,0 l/m 0 min 0 min 0 W/m 22,5 km/h (4 Bft) 100,00 %
07.02.2020 23:14 3,3 C 2,2 C 1,7 C 82 % 1023,1 hPa 0,0 l/m 0 min 0 min 0 W/m 19,3 km/h (3 Bft) 97,87 %
07.02.2020 23:16 3,3 C 2,2 C 1,7 C 82 % 1023,0 hPa 0,0 l/m 0 min 0 min 0 W/m 25,7 km/h (4 Bft) 100,00 %
07.02.2020 23:18 3,2 C 2,2 C 1,7 C 82 % 1023,1 hPa 0,0 l/m 0 min 0 min 0 W/m 19,3 km/h (3 Bft) 100,00 %
07.02.2020 23:20 3,2 C 2,2 C 1,7 C 82 % 1023,0 hPa 0,0 l/m 0 min 0 min 0 W/m 22,5 km/h (4 Bft) 100,00 %
07.02.2020 23:22 3,2 C 2,2 C 1,7 C 82 % 1023,0 hPa 0,0 l/m 0 min 0 min 0 W/m 25,7 km/h (4 Bft) 100,00 %
07.02.2020 23:24 3,2 C 2,2 C 1,7 C 83 % 1023,0 hPa 0,0 l/m 0 min 0 min 0 W/m 22,5 km/h (4 Bft) 100,00 %
07.02.2020 23:26 3,1 C 2,2 C 1,7 C 83 % 1022,9 hPa 0,0 l/m 0 min 0 min 0 W/m 25,7 km/h (4 Bft) 100,00 %
07.02.2020 23:28 3,1 C 2,2 C 1,7 C 83 % 1023,0 hPa 0,0 l/m 0 min 0 min 0 W/m 22,5 km/h (4 Bft) 100,00 %
07.02.2020 23:30 3,1 C 2,2 C 1,7 C 83 % 1022,9 hPa 0,0 l/m 0 min 0 min 0 W/m 29,0 km/h (5 Bft) 100,00 %
07.02.2020 23:32 3,1 C 2,2 C 1,7 C 83 % 1022,9 hPa 0,0 l/m 0 min 0 min 0 W/m 16,1 km/h (3 Bft) 100,00 %
07.02.2020 23:34 3,0 C 2,2 C 1,7 C 83 % 1022,9 hPa 0,0 l/m 0 min 0 min 0 W/m 29,0 km/h (5 Bft) 100,00 %
07.02.2020 23:36 3,0 C 2,2 C 1,7 C 83 % 1022,8 hPa 0,0 l/m 0 min 0 min 0 W/m 22,5 km/h (4 Bft) 100,00 %
07.02.2020 23:38 3,0 C 2,2 C 1,7 C 83 % 1022,8 hPa 0,0 l/m 0 min 0 min 0 W/m 22,5 km/h (4 Bft) 100,00 %
07.02.2020 23:40 3,0 C 2,2 C 1,7 C 83 % 1022,7 hPa 0,0 l/m 0 min 0 min 0 W/m 19,3 km/h (3 Bft) 100,00 %
07.02.2020 23:42 2,9 C 2,2 C 1,7 C 83 % 1022,6 hPa 0,0 l/m 0 min 0 min 0 W/m 16,1 km/h (3 Bft) 100,00 %
07.02.2020 23:44 2,9 C 2,2 C 1,7 C 83 % 1022,6 hPa 0,0 l/m 0 min 0 min 0 W/m 19,3 km/h (3 Bft) 100,00 %
07.02.2020 23:46 2,9 C 2,2 C 1,7 C 84 % 1022,6 hPa 0,0 l/m 0 min 0 min 0 W/m 22,5 km/h (4 Bft) 95,74 %
07.02.2020 23:48 2,9 C 2,2 C 1,7 C 83 % 1022,6 hPa 0,0 l/m 0 min 0 min 0 W/m 19,3 km/h (3 Bft) 100,00 %
07.02.2020 23:50 2,9 C 2,2 C 1,7 C 84 % 1022,6 hPa 0,0 l/m 0 min 0 min 0 W/m 19,3 km/h (3 Bft) 100,00 %
07.02.2020 23:52 2,9 C 2,2 C 1,7 C 84 % 1022,5 hPa 0,0 l/m 0 min 0 min 0 W/m 19,3 km/h (3 Bft) 100,00 %
07.02.2020 23:54 2,9 C 2,2 C 1,7 C 84 % 1022,5 hPa 0,0 l/m 0 min 0 min 0 W/m 29,0 km/h (5 Bft) 97,87 %
07.02.2020 23:56 2,8 C 2,2 C 1,7 C 84 % 1022,5 hPa 0,0 l/m 0 min 0 min 0 W/m 22,5 km/h (4 Bft) 95,74 %
07.02.2020 23:58 2,8 C 2,2 C 1,7 C 84 % 1022,5 hPa 0,0 l/m 0 min 0 min 0 W/m 25,7 km/h (4 Bft) 97,83 %
_ Min-Zeit 06:08 05:58 05:58 15:04 23:52 - - - - 00:02 08:06
Minimum _ 0,1 C -1,7 C -2,2 C 67 % 1022,5 hPa - - - - 0,0 km/h (0 Bft) 53,33 %
_ Max-Zeit 14:38 13:54 12:46 06:36 00:00 10:50 09:30 00:00 12:48 10:50 00:30
Maximum _ 8,6 C 12,2 C 10,6 C 96 % 1031,4 hPa 0,2 l/m 2 min 0 min 431 W/m 48,3 km/h
O (6 Bft)
100,00 %
Durchschnitt _ 3,8 C 4,0 C 2,4 C 83 % 1026,8 hPa #0,2 l/m #6:36 h #0 min. 235 W/m 18,3 km/h (3 Bft) 97,40 %
© 2020 W. Hausmann